<?xml version="1.0" encoding="UTF-8" standalone="no" ?>
<gpx xmlns="http://www.topografix.com/GPX/1/1" xmlns:xsi="http://www.w3.org/2001/XMLSchema-instance" xsi:schemaLocation="http://www.topografix.com/GPX/1/1 http://www.topografix.com/GPX/1/1/gpx.xsd" version="1.1" creator="VisuGPX - https://www.visugpx.com">
  <metadata>
    <name>Buis les Baronnies - Montagne de Gravas</name>
    <desc><![CDATA[Une jolie boucle au départ de Buis les Baronnies]]></desc>
  </metadata>
  <trk>
    <name><![CDATA[27-SEP-15 04:34:44 PM]]></name>
    <trkseg>
      <trkpt lat="44.27901" lon="5.27896">
        <ele>404.37</ele>
        <time>2015-09-27T07:29:54Z</time>
      </trkpt>
      <trkpt lat="44.27904" lon="5.27895">
        <ele>403.41</ele>
        <time>2015-09-27T07:30:24Z</time>
      </trkpt>
      <trkpt lat="44.27904" lon="5.27895">
        <ele>403.89</ele>
        <time>2015-09-27T07:30:54Z</time>
      </trkpt>
      <trkpt lat="44.27904" lon="5.27896">
        <ele>402.93</ele>
        <time>2015-09-27T07:31:24Z</time>
      </trkpt>
      <trkpt lat="44.27903" lon="5.27894">
        <ele>402.45</ele>
        <time>2015-09-27T07:31:54Z</time>
      </trkpt>
      <trkpt lat="44.27904" lon="5.27896">
        <ele>402.45</ele>
        <time>2015-09-27T07:32:24Z</time>
      </trkpt>
      <trkpt lat="44.27905" lon="5.27897">
        <ele>401.97</ele>
        <time>2015-09-27T07:32:54Z</time>
      </trkpt>
      <trkpt lat="44.27906" lon="5.27899">
        <ele>401.49</ele>
        <time>2015-09-27T07:33:24Z</time>
      </trkpt>
      <trkpt lat="44.27906" lon="5.27899">
        <ele>401.49</ele>
        <time>2015-09-27T07:33:54Z</time>
      </trkpt>
      <trkpt lat="44.27905" lon="5.279">
        <ele>401.01</ele>
        <time>2015-09-27T07:34:24Z</time>
      </trkpt>
      <trkpt lat="44.27905" lon="5.27899">
        <ele>400.53</ele>
        <time>2015-09-27T07:34:54Z</time>
      </trkpt>
      <trkpt lat="44.27904" lon="5.27896">
        <ele>400.53</ele>
        <time>2015-09-27T07:35:24Z</time>
      </trkpt>
      <trkpt lat="44.27904" lon="5.27895">
        <ele>400.05</ele>
        <time>2015-09-27T07:35:54Z</time>
      </trkpt>
      <trkpt lat="44.27905" lon="5.27896">
        <ele>399.57</ele>
        <time>2015-09-27T07:36:24Z</time>
      </trkpt>
      <trkpt lat="44.27904" lon="5.27896">
        <ele>399.57</ele>
        <time>2015-09-27T07:36:54Z</time>
      </trkpt>
      <trkpt lat="44.27903" lon="5.27896">
        <ele>399.57</ele>
        <time>2015-09-27T07:37:24Z</time>
      </trkpt>
      <trkpt lat="44.27901" lon="5.27896">
        <ele>399.08</ele>
        <time>2015-09-27T07:37:54Z</time>
      </trkpt>
      <trkpt lat="44.27901" lon="5.27896">
        <ele>399.08</ele>
        <time>2015-09-27T07:38:24Z</time>
      </trkpt>
      <trkpt lat="44.27901" lon="5.27897">
        <ele>398.6</ele>
        <time>2015-09-27T07:38:54Z</time>
      </trkpt>
      <trkpt lat="44.27902" lon="5.27894">
        <ele>398.6</ele>
        <time>2015-09-27T07:39:24Z</time>
      </trkpt>
      <trkpt lat="44.27902" lon="5.27891">
        <ele>398.12</ele>
        <time>2015-09-27T07:39:54Z</time>
      </trkpt>
      <trkpt lat="44.27902" lon="5.27892">
        <ele>398.12</ele>
        <time>2015-09-27T07:40:24Z</time>
      </trkpt>
      <trkpt lat="44.27901" lon="5.27893">
        <ele>397.64</ele>
        <time>2015-09-27T07:40:54Z</time>
      </trkpt>
      <trkpt lat="44.27944" lon="5.27908">
        <ele>398.6</ele>
        <time>2015-09-27T07:41:24Z</time>
      </trkpt>
      <trkpt lat="44.28015" lon="5.27993">
        <ele>400.05</ele>
        <time>2015-09-27T07:41:54Z</time>
      </trkpt>
      <trkpt lat="44.28067" lon="5.28148">
        <ele>400.05</ele>
        <time>2015-09-27T07:42:24Z</time>
      </trkpt>
      <trkpt lat="44.28059" lon="5.28284">
        <ele>403.89</ele>
        <time>2015-09-27T07:42:54Z</time>
      </trkpt>
      <trkpt lat="44.28042" lon="5.28381">
        <ele>408.22</ele>
        <time>2015-09-27T07:43:24Z</time>
      </trkpt>
      <trkpt lat="44.28021" lon="5.28479">
        <ele>413.02</ele>
        <time>2015-09-27T07:43:54Z</time>
      </trkpt>
      <trkpt lat="44.28004" lon="5.28576">
        <ele>417.35</ele>
        <time>2015-09-27T07:44:24Z</time>
      </trkpt>
      <trkpt lat="44.27964" lon="5.28669">
        <ele>421.68</ele>
        <time>2015-09-27T07:44:54Z</time>
      </trkpt>
      <trkpt lat="44.27913" lon="5.28749">
        <ele>426</ele>
        <time>2015-09-27T07:45:24Z</time>
      </trkpt>
      <trkpt lat="44.27889" lon="5.28858">
        <ele>430.81</ele>
        <time>2015-09-27T07:45:54Z</time>
      </trkpt>
      <trkpt lat="44.27892" lon="5.28962">
        <ele>435.13</ele>
        <time>2015-09-27T07:46:24Z</time>
      </trkpt>
      <trkpt lat="44.27866" lon="5.2907">
        <ele>439.94</ele>
        <time>2015-09-27T07:46:54Z</time>
      </trkpt>
      <trkpt lat="44.27845" lon="5.29182">
        <ele>445.23</ele>
        <time>2015-09-27T07:47:24Z</time>
      </trkpt>
      <trkpt lat="44.27823" lon="5.29292">
        <ele>450.03</ele>
        <time>2015-09-27T07:47:54Z</time>
      </trkpt>
      <trkpt lat="44.27813" lon="5.29404">
        <ele>454.84</ele>
        <time>2015-09-27T07:48:24Z</time>
      </trkpt>
      <trkpt lat="44.27833" lon="5.29513">
        <ele>459.65</ele>
        <time>2015-09-27T07:48:54Z</time>
      </trkpt>
      <trkpt lat="44.27833" lon="5.29613">
        <ele>465.42</ele>
        <time>2015-09-27T07:49:24Z</time>
      </trkpt>
      <trkpt lat="44.27833" lon="5.29716">
        <ele>470.22</ele>
        <time>2015-09-27T07:49:54Z</time>
      </trkpt>
      <trkpt lat="44.27857" lon="5.29809">
        <ele>475.03</ele>
        <time>2015-09-27T07:50:24Z</time>
      </trkpt>
      <trkpt lat="44.27855" lon="5.29909">
        <ele>480.32</ele>
        <time>2015-09-27T07:50:54Z</time>
      </trkpt>
      <trkpt lat="44.27887" lon="5.29999">
        <ele>484.64</ele>
        <time>2015-09-27T07:51:24Z</time>
      </trkpt>
      <trkpt lat="44.27872" lon="5.30096">
        <ele>489.45</ele>
        <time>2015-09-27T07:51:54Z</time>
      </trkpt>
      <trkpt lat="44.2787" lon="5.30198">
        <ele>493.29</ele>
        <time>2015-09-27T07:52:24Z</time>
      </trkpt>
      <trkpt lat="44.27826" lon="5.3027">
        <ele>499.06</ele>
        <time>2015-09-27T07:52:54Z</time>
      </trkpt>
      <trkpt lat="44.27788" lon="5.3036">
        <ele>503.39</ele>
        <time>2015-09-27T07:53:24Z</time>
      </trkpt>
      <trkpt lat="44.27748" lon="5.30453">
        <ele>508.19</ele>
        <time>2015-09-27T07:53:54Z</time>
      </trkpt>
      <trkpt lat="44.27699" lon="5.30545">
        <ele>512.52</ele>
        <time>2015-09-27T07:54:24Z</time>
      </trkpt>
      <trkpt lat="44.27682" lon="5.30648">
        <ele>517.81</ele>
        <time>2015-09-27T07:54:54Z</time>
      </trkpt>
      <trkpt lat="44.27664" lon="5.30753">
        <ele>522.61</ele>
        <time>2015-09-27T07:55:24Z</time>
      </trkpt>
      <trkpt lat="44.27621" lon="5.30842">
        <ele>526.94</ele>
        <time>2015-09-27T07:55:54Z</time>
      </trkpt>
      <trkpt lat="44.27624" lon="5.30946">
        <ele>531.27</ele>
        <time>2015-09-27T07:56:24Z</time>
      </trkpt>
      <trkpt lat="44.27605" lon="5.31053">
        <ele>536.07</ele>
        <time>2015-09-27T07:56:54Z</time>
      </trkpt>
      <trkpt lat="44.27573" lon="5.31128">
        <ele>542.32</ele>
        <time>2015-09-27T07:57:24Z</time>
      </trkpt>
      <trkpt lat="44.27551" lon="5.31205">
        <ele>547.13</ele>
        <time>2015-09-27T07:57:54Z</time>
      </trkpt>
      <trkpt lat="44.27544" lon="5.31305">
        <ele>551.45</ele>
        <time>2015-09-27T07:58:24Z</time>
      </trkpt>
      <trkpt lat="44.27536" lon="5.31407">
        <ele>556.26</ele>
        <time>2015-09-27T07:58:54Z</time>
      </trkpt>
      <trkpt lat="44.27539" lon="5.3151">
        <ele>561.07</ele>
        <time>2015-09-27T07:59:24Z</time>
      </trkpt>
      <trkpt lat="44.27542" lon="5.316">
        <ele>564.91</ele>
        <time>2015-09-27T07:59:54Z</time>
      </trkpt>
      <trkpt lat="44.27542" lon="5.31615">
        <ele>565.87</ele>
        <time>2015-09-27T08:00:24Z</time>
      </trkpt>
      <trkpt lat="44.27541" lon="5.31615">
        <ele>565.87</ele>
        <time>2015-09-27T08:00:54Z</time>
      </trkpt>
      <trkpt lat="44.27542" lon="5.31617">
        <ele>565.87</ele>
        <time>2015-09-27T08:01:24Z</time>
      </trkpt>
      <trkpt lat="44.27539" lon="5.31489">
        <ele>559.62</ele>
        <time>2015-09-27T08:01:54Z</time>
      </trkpt>
      <trkpt lat="44.27546" lon="5.31316">
        <ele>550.97</ele>
        <time>2015-09-27T08:02:24Z</time>
      </trkpt>
      <trkpt lat="44.27528" lon="5.31277">
        <ele>544.72</ele>
        <time>2015-09-27T08:02:54Z</time>
      </trkpt>
      <trkpt lat="44.27498" lon="5.31269">
        <ele>535.11</ele>
        <time>2015-09-27T08:03:24Z</time>
      </trkpt>
      <trkpt lat="44.27483" lon="5.31267">
        <ele>532.71</ele>
        <time>2015-09-27T08:03:54Z</time>
      </trkpt>
      <trkpt lat="44.27488" lon="5.31267">
        <ele>532.71</ele>
        <time>2015-09-27T08:04:24Z</time>
      </trkpt>
      <trkpt lat="44.27482" lon="5.31252">
        <ele>527.42</ele>
        <time>2015-09-27T08:04:54Z</time>
      </trkpt>
      <trkpt lat="44.27452" lon="5.31257">
        <ele>520.21</ele>
        <time>2015-09-27T08:05:24Z</time>
      </trkpt>
      <trkpt lat="44.27428" lon="5.31275">
        <ele>515.4</ele>
        <time>2015-09-27T08:05:54Z</time>
      </trkpt>
      <trkpt lat="44.27372" lon="5.31335">
        <ele>503.39</ele>
        <time>2015-09-27T08:06:24Z</time>
      </trkpt>
      <trkpt lat="44.27373" lon="5.31338">
        <ele>502.91</ele>
        <time>2015-09-27T08:06:54Z</time>
      </trkpt>
      <trkpt lat="44.2738" lon="5.31421">
        <ele>501.46</ele>
        <time>2015-09-27T08:07:24Z</time>
      </trkpt>
      <trkpt lat="44.27365" lon="5.31539">
        <ele>507.71</ele>
        <time>2015-09-27T08:07:54Z</time>
      </trkpt>
      <trkpt lat="44.27399" lon="5.31655">
        <ele>512.04</ele>
        <time>2015-09-27T08:08:24Z</time>
      </trkpt>
      <trkpt lat="44.27392" lon="5.31751">
        <ele>522.13</ele>
        <time>2015-09-27T08:08:54Z</time>
      </trkpt>
      <trkpt lat="44.27359" lon="5.31805">
        <ele>528.38</ele>
        <time>2015-09-27T08:09:24Z</time>
      </trkpt>
      <trkpt lat="44.27397" lon="5.31818">
        <ele>533.19</ele>
        <time>2015-09-27T08:09:54Z</time>
      </trkpt>
      <trkpt lat="44.27397" lon="5.31818">
        <ele>533.19</ele>
        <time>2015-09-27T08:10:24Z</time>
      </trkpt>
      <trkpt lat="44.27397" lon="5.31817">
        <ele>534.15</ele>
        <time>2015-09-27T08:10:54Z</time>
      </trkpt>
      <trkpt lat="44.27397" lon="5.31817">
        <ele>532.71</ele>
        <time>2015-09-27T08:11:24Z</time>
      </trkpt>
      <trkpt lat="44.27396" lon="5.31818">
        <ele>532.71</ele>
        <time>2015-09-27T08:11:54Z</time>
      </trkpt>
      <trkpt lat="44.27394" lon="5.3188">
        <ele>538.96</ele>
        <time>2015-09-27T08:12:24Z</time>
      </trkpt>
      <trkpt lat="44.27413" lon="5.31935">
        <ele>546.17</ele>
        <time>2015-09-27T08:12:54Z</time>
      </trkpt>
      <trkpt lat="44.27395" lon="5.32024">
        <ele>547.61</ele>
        <time>2015-09-27T08:13:24Z</time>
      </trkpt>
      <trkpt lat="44.27395" lon="5.3204">
        <ele>547.61</ele>
        <time>2015-09-27T08:13:54Z</time>
      </trkpt>
      <trkpt lat="44.27395" lon="5.3204">
        <ele>547.61</ele>
        <time>2015-09-27T08:14:24Z</time>
      </trkpt>
      <trkpt lat="44.27395" lon="5.3204">
        <ele>547.61</ele>
        <time>2015-09-27T08:14:54Z</time>
      </trkpt>
      <trkpt lat="44.27316" lon="5.32156">
        <ele>540.88</ele>
        <time>2015-09-27T08:15:24Z</time>
      </trkpt>
      <trkpt lat="44.27187" lon="5.32353">
        <ele>528.38</ele>
        <time>2015-09-27T08:15:54Z</time>
      </trkpt>
      <trkpt lat="44.27178" lon="5.32338">
        <ele>528.38</ele>
        <time>2015-09-27T08:16:24Z</time>
      </trkpt>
      <trkpt lat="44.27179" lon="5.32338">
        <ele>528.38</ele>
        <time>2015-09-27T08:16:54Z</time>
      </trkpt>
      <trkpt lat="44.27182" lon="5.32332">
        <ele>527.9</ele>
        <time>2015-09-27T08:17:24Z</time>
      </trkpt>
      <trkpt lat="44.27202" lon="5.3224">
        <ele>532.71</ele>
        <time>2015-09-27T08:17:54Z</time>
      </trkpt>
      <trkpt lat="44.27149" lon="5.32174">
        <ele>537.51</ele>
        <time>2015-09-27T08:18:24Z</time>
      </trkpt>
      <trkpt lat="44.27117" lon="5.32096">
        <ele>545.2</ele>
        <time>2015-09-27T08:18:54Z</time>
      </trkpt>
      <trkpt lat="44.27078" lon="5.32042">
        <ele>552.41</ele>
        <time>2015-09-27T08:19:24Z</time>
      </trkpt>
      <trkpt lat="44.27053" lon="5.32106">
        <ele>559.62</ele>
        <time>2015-09-27T08:19:54Z</time>
      </trkpt>
      <trkpt lat="44.27032" lon="5.32105">
        <ele>566.35</ele>
        <time>2015-09-27T08:20:24Z</time>
      </trkpt>
      <trkpt lat="44.27014" lon="5.32042">
        <ele>574.04</ele>
        <time>2015-09-27T08:20:54Z</time>
      </trkpt>
      <trkpt lat="44.27011" lon="5.32061">
        <ele>575.97</ele>
        <time>2015-09-27T08:21:24Z</time>
      </trkpt>
      <trkpt lat="44.26979" lon="5.32145">
        <ele>580.77</ele>
        <time>2015-09-27T08:21:54Z</time>
      </trkpt>
      <trkpt lat="44.26918" lon="5.32229">
        <ele>586.54</ele>
        <time>2015-09-27T08:22:24Z</time>
      </trkpt>
      <trkpt lat="44.26901" lon="5.32337">
        <ele>590.39</ele>
        <time>2015-09-27T08:22:54Z</time>
      </trkpt>
      <trkpt lat="44.26892" lon="5.32451">
        <ele>593.75</ele>
        <time>2015-09-27T08:23:24Z</time>
      </trkpt>
      <trkpt lat="44.26892" lon="5.32467">
        <ele>593.75</ele>
        <time>2015-09-27T08:23:54Z</time>
      </trkpt>
      <trkpt lat="44.26897" lon="5.32543">
        <ele>597.12</ele>
        <time>2015-09-27T08:24:24Z</time>
      </trkpt>
      <trkpt lat="44.26865" lon="5.32641">
        <ele>601.92</ele>
        <time>2015-09-27T08:24:54Z</time>
      </trkpt>
      <trkpt lat="44.2679" lon="5.32623">
        <ele>605.77</ele>
        <time>2015-09-27T08:25:24Z</time>
      </trkpt>
      <trkpt lat="44.26744" lon="5.32605">
        <ele>612.02</ele>
        <time>2015-09-27T08:25:54Z</time>
      </trkpt>
      <trkpt lat="44.26703" lon="5.32631">
        <ele>617.78</ele>
        <time>2015-09-27T08:26:24Z</time>
      </trkpt>
      <trkpt lat="44.26706" lon="5.32698">
        <ele>622.11</ele>
        <time>2015-09-27T08:26:54Z</time>
      </trkpt>
      <trkpt lat="44.26727" lon="5.32765">
        <ele>626.44</ele>
        <time>2015-09-27T08:27:24Z</time>
      </trkpt>
      <trkpt lat="44.26759" lon="5.32821">
        <ele>630.76</ele>
        <time>2015-09-27T08:27:54Z</time>
      </trkpt>
      <trkpt lat="44.26789" lon="5.32887">
        <ele>631.72</ele>
        <time>2015-09-27T08:28:24Z</time>
      </trkpt>
      <trkpt lat="44.26786" lon="5.32954">
        <ele>637.49</ele>
        <time>2015-09-27T08:28:54Z</time>
      </trkpt>
      <trkpt lat="44.26806" lon="5.33007">
        <ele>644.7</ele>
        <time>2015-09-27T08:29:24Z</time>
      </trkpt>
      <trkpt lat="44.26768" lon="5.33002">
        <ele>649.51</ele>
        <time>2015-09-27T08:29:54Z</time>
      </trkpt>
      <trkpt lat="44.26726" lon="5.32981">
        <ele>651.91</ele>
        <time>2015-09-27T08:30:24Z</time>
      </trkpt>
      <trkpt lat="44.26691" lon="5.32918">
        <ele>654.8</ele>
        <time>2015-09-27T08:30:54Z</time>
      </trkpt>
      <trkpt lat="44.26651" lon="5.32889">
        <ele>660.08</ele>
        <time>2015-09-27T08:31:24Z</time>
      </trkpt>
      <trkpt lat="44.2663" lon="5.32909">
        <ele>665.85</ele>
        <time>2015-09-27T08:31:54Z</time>
      </trkpt>
      <trkpt lat="44.26647" lon="5.32959">
        <ele>670.66</ele>
        <time>2015-09-27T08:32:24Z</time>
      </trkpt>
      <trkpt lat="44.26645" lon="5.33009">
        <ele>674.5</ele>
        <time>2015-09-27T08:32:54Z</time>
      </trkpt>
      <trkpt lat="44.266" lon="5.33061">
        <ele>675.46</ele>
        <time>2015-09-27T08:33:24Z</time>
      </trkpt>
      <trkpt lat="44.26552" lon="5.33138">
        <ele>677.39</ele>
        <time>2015-09-27T08:33:54Z</time>
      </trkpt>
      <trkpt lat="44.26444" lon="5.33241">
        <ele>674.5</ele>
        <time>2015-09-27T08:34:24Z</time>
      </trkpt>
      <trkpt lat="44.26356" lon="5.33337">
        <ele>678.35</ele>
        <time>2015-09-27T08:34:54Z</time>
      </trkpt>
      <trkpt lat="44.2627" lon="5.33412">
        <ele>678.83</ele>
        <time>2015-09-27T08:35:24Z</time>
      </trkpt>
      <trkpt lat="44.262" lon="5.33613">
        <ele>665.85</ele>
        <time>2015-09-27T08:35:54Z</time>
      </trkpt>
      <trkpt lat="44.26041" lon="5.33665">
        <ele>658.16</ele>
        <time>2015-09-27T08:36:24Z</time>
      </trkpt>
      <trkpt lat="44.25886" lon="5.33865">
        <ele>651.91</ele>
        <time>2015-09-27T08:36:54Z</time>
      </trkpt>
      <trkpt lat="44.25811" lon="5.34078">
        <ele>649.99</ele>
        <time>2015-09-27T08:37:24Z</time>
      </trkpt>
      <trkpt lat="44.25726" lon="5.34181">
        <ele>655.28</ele>
        <time>2015-09-27T08:37:54Z</time>
      </trkpt>
      <trkpt lat="44.25679" lon="5.34236">
        <ele>660.56</ele>
        <time>2015-09-27T08:38:24Z</time>
      </trkpt>
      <trkpt lat="44.25587" lon="5.34332">
        <ele>660.56</ele>
        <time>2015-09-27T08:38:54Z</time>
      </trkpt>
      <trkpt lat="44.25495" lon="5.34414">
        <ele>661.04</ele>
        <time>2015-09-27T08:39:24Z</time>
      </trkpt>
      <trkpt lat="44.25447" lon="5.34435">
        <ele>668.25</ele>
        <time>2015-09-27T08:39:54Z</time>
      </trkpt>
      <trkpt lat="44.25452" lon="5.3451">
        <ele>674.98</ele>
        <time>2015-09-27T08:40:24Z</time>
      </trkpt>
      <trkpt lat="44.25408" lon="5.34573">
        <ele>679.79</ele>
        <time>2015-09-27T08:40:54Z</time>
      </trkpt>
      <trkpt lat="44.25368" lon="5.34644">
        <ele>685.56</ele>
        <time>2015-09-27T08:41:24Z</time>
      </trkpt>
      <trkpt lat="44.25344" lon="5.34726">
        <ele>688.92</ele>
        <time>2015-09-27T08:41:54Z</time>
      </trkpt>
      <trkpt lat="44.25326" lon="5.3478">
        <ele>694.21</ele>
        <time>2015-09-27T08:42:24Z</time>
      </trkpt>
      <trkpt lat="44.25321" lon="5.34693">
        <ele>698.05</ele>
        <time>2015-09-27T08:42:54Z</time>
      </trkpt>
      <trkpt lat="44.25303" lon="5.3461">
        <ele>702.38</ele>
        <time>2015-09-27T08:43:24Z</time>
      </trkpt>
      <trkpt lat="44.25252" lon="5.34582">
        <ele>707.19</ele>
        <time>2015-09-27T08:43:54Z</time>
      </trkpt>
      <trkpt lat="44.25253" lon="5.34644">
        <ele>712.47</ele>
        <time>2015-09-27T08:44:24Z</time>
      </trkpt>
      <trkpt lat="44.25229" lon="5.34708">
        <ele>717.76</ele>
        <time>2015-09-27T08:44:54Z</time>
      </trkpt>
      <trkpt lat="44.25191" lon="5.34756">
        <ele>723.53</ele>
        <time>2015-09-27T08:45:24Z</time>
      </trkpt>
      <trkpt lat="44.25154" lon="5.34813">
        <ele>728.34</ele>
        <time>2015-09-27T08:45:54Z</time>
      </trkpt>
      <trkpt lat="44.25129" lon="5.34828">
        <ele>728.34</ele>
        <time>2015-09-27T08:46:24Z</time>
      </trkpt>
      <trkpt lat="44.25066" lon="5.34815">
        <ele>733.14</ele>
        <time>2015-09-27T08:46:54Z</time>
      </trkpt>
      <trkpt lat="44.24994" lon="5.34725">
        <ele>733.14</ele>
        <time>2015-09-27T08:47:24Z</time>
      </trkpt>
      <trkpt lat="44.24983" lon="5.34652">
        <ele>739.39</ele>
        <time>2015-09-27T08:47:54Z</time>
      </trkpt>
      <trkpt lat="44.24974" lon="5.34592">
        <ele>744.2</ele>
        <time>2015-09-27T08:48:24Z</time>
      </trkpt>
      <trkpt lat="44.24945" lon="5.34573">
        <ele>749.49</ele>
        <time>2015-09-27T08:48:54Z</time>
      </trkpt>
      <trkpt lat="44.24887" lon="5.34591">
        <ele>753.33</ele>
        <time>2015-09-27T08:49:24Z</time>
      </trkpt>
      <trkpt lat="44.24848" lon="5.3455">
        <ele>759.58</ele>
        <time>2015-09-27T08:49:54Z</time>
      </trkpt>
      <trkpt lat="44.24795" lon="5.34551">
        <ele>764.87</ele>
        <time>2015-09-27T08:50:24Z</time>
      </trkpt>
      <trkpt lat="44.24766" lon="5.34574">
        <ele>766.31</ele>
        <time>2015-09-27T08:50:54Z</time>
      </trkpt>
      <trkpt lat="44.2471" lon="5.34607">
        <ele>769.19</ele>
        <time>2015-09-27T08:51:24Z</time>
      </trkpt>
      <trkpt lat="44.24659" lon="5.34586">
        <ele>774.48</ele>
        <time>2015-09-27T08:51:54Z</time>
      </trkpt>
      <trkpt lat="44.246" lon="5.34564">
        <ele>776.4</ele>
        <time>2015-09-27T08:52:24Z</time>
      </trkpt>
      <trkpt lat="44.24534" lon="5.34565">
        <ele>782.17</ele>
        <time>2015-09-27T08:52:54Z</time>
      </trkpt>
      <trkpt lat="44.2448" lon="5.34618">
        <ele>786.5</ele>
        <time>2015-09-27T08:53:24Z</time>
      </trkpt>
      <trkpt lat="44.24424" lon="5.34661">
        <ele>795.15</ele>
        <time>2015-09-27T08:53:54Z</time>
      </trkpt>
      <trkpt lat="44.24376" lon="5.34694">
        <ele>804.28</ele>
        <time>2015-09-27T08:54:24Z</time>
      </trkpt>
      <trkpt lat="44.2442" lon="5.34755">
        <ele>811.49</ele>
        <time>2015-09-27T08:54:54Z</time>
      </trkpt>
      <trkpt lat="44.2446" lon="5.34808">
        <ele>816.3</ele>
        <time>2015-09-27T08:55:24Z</time>
      </trkpt>
      <trkpt lat="44.2446" lon="5.34808">
        <ele>816.3</ele>
        <time>2015-09-27T08:55:54Z</time>
      </trkpt>
      <trkpt lat="44.2446" lon="5.34807">
        <ele>816.78</ele>
        <time>2015-09-27T08:56:24Z</time>
      </trkpt>
      <trkpt lat="44.24474" lon="5.34818">
        <ele>817.26</ele>
        <time>2015-09-27T08:56:54Z</time>
      </trkpt>
      <trkpt lat="44.24514" lon="5.34861">
        <ele>822.55</ele>
        <time>2015-09-27T08:57:24Z</time>
      </trkpt>
      <trkpt lat="44.24456" lon="5.34854">
        <ele>828.79</ele>
        <time>2015-09-27T08:57:54Z</time>
      </trkpt>
      <trkpt lat="44.24402" lon="5.34853">
        <ele>836</ele>
        <time>2015-09-27T08:58:24Z</time>
      </trkpt>
      <trkpt lat="44.24376" lon="5.34861">
        <ele>840.33</ele>
        <time>2015-09-27T08:58:54Z</time>
      </trkpt>
      <trkpt lat="44.24375" lon="5.34862">
        <ele>840.33</ele>
        <time>2015-09-27T08:59:24Z</time>
      </trkpt>
      <trkpt lat="44.24363" lon="5.34862">
        <ele>841.77</ele>
        <time>2015-09-27T08:59:54Z</time>
      </trkpt>
      <trkpt lat="44.24309" lon="5.3488">
        <ele>846.1</ele>
        <time>2015-09-27T09:00:24Z</time>
      </trkpt>
      <trkpt lat="44.24252" lon="5.34916">
        <ele>853.31</ele>
        <time>2015-09-27T09:00:54Z</time>
      </trkpt>
      <trkpt lat="44.24205" lon="5.34946">
        <ele>860.52</ele>
        <time>2015-09-27T09:01:24Z</time>
      </trkpt>
      <trkpt lat="44.24153" lon="5.34962">
        <ele>867.25</ele>
        <time>2015-09-27T09:01:54Z</time>
      </trkpt>
      <trkpt lat="44.24106" lon="5.34975">
        <ele>874.94</ele>
        <time>2015-09-27T09:02:24Z</time>
      </trkpt>
      <trkpt lat="44.24047" lon="5.34961">
        <ele>877.82</ele>
        <time>2015-09-27T09:02:54Z</time>
      </trkpt>
      <trkpt lat="44.24003" lon="5.34906">
        <ele>885.03</ele>
        <time>2015-09-27T09:03:24Z</time>
      </trkpt>
      <trkpt lat="44.23957" lon="5.34883">
        <ele>891.76</ele>
        <time>2015-09-27T09:03:54Z</time>
      </trkpt>
      <trkpt lat="44.23944" lon="5.34883">
        <ele>894.16</ele>
        <time>2015-09-27T09:04:24Z</time>
      </trkpt>
      <trkpt lat="44.23885" lon="5.34866">
        <ele>908.1</ele>
        <time>2015-09-27T09:04:54Z</time>
      </trkpt>
      <trkpt lat="44.23837" lon="5.34914">
        <ele>914.35</ele>
        <time>2015-09-27T09:05:24Z</time>
      </trkpt>
      <trkpt lat="44.23778" lon="5.34966">
        <ele>920.12</ele>
        <time>2015-09-27T09:05:54Z</time>
      </trkpt>
      <trkpt lat="44.23708" lon="5.34976">
        <ele>924.45</ele>
        <time>2015-09-27T09:06:24Z</time>
      </trkpt>
      <trkpt lat="44.23657" lon="5.35014">
        <ele>931.17</ele>
        <time>2015-09-27T09:06:54Z</time>
      </trkpt>
      <trkpt lat="44.23645" lon="5.35082">
        <ele>940.31</ele>
        <time>2015-09-27T09:07:24Z</time>
      </trkpt>
      <trkpt lat="44.23668" lon="5.35134">
        <ele>951.84</ele>
        <time>2015-09-27T09:07:54Z</time>
      </trkpt>
      <trkpt lat="44.23668" lon="5.35136">
        <ele>951.84</ele>
        <time>2015-09-27T09:08:24Z</time>
      </trkpt>
      <trkpt lat="44.23667" lon="5.35135">
        <ele>951.84</ele>
        <time>2015-09-27T09:08:54Z</time>
      </trkpt>
      <trkpt lat="44.23666" lon="5.35135">
        <ele>951.84</ele>
        <time>2015-09-27T09:09:24Z</time>
      </trkpt>
      <trkpt lat="44.23666" lon="5.35134">
        <ele>951.84</ele>
        <time>2015-09-27T09:09:54Z</time>
      </trkpt>
      <trkpt lat="44.23666" lon="5.35134">
        <ele>951.84</ele>
        <time>2015-09-27T09:10:24Z</time>
      </trkpt>
      <trkpt lat="44.23666" lon="5.35134">
        <ele>951.84</ele>
        <time>2015-09-27T09:10:54Z</time>
      </trkpt>
      <trkpt lat="44.23667" lon="5.35134">
        <ele>951.84</ele>
        <time>2015-09-27T09:11:24Z</time>
      </trkpt>
      <trkpt lat="44.23667" lon="5.35136">
        <ele>951.84</ele>
        <time>2015-09-27T09:11:54Z</time>
      </trkpt>
      <trkpt lat="44.23666" lon="5.35137">
        <ele>951.84</ele>
        <time>2015-09-27T09:12:24Z</time>
      </trkpt>
      <trkpt lat="44.23666" lon="5.35137">
        <ele>951.84</ele>
        <time>2015-09-27T09:12:54Z</time>
      </trkpt>
      <trkpt lat="44.23666" lon="5.35136">
        <ele>951.84</ele>
        <time>2015-09-27T09:13:24Z</time>
      </trkpt>
      <trkpt lat="44.23667" lon="5.35136">
        <ele>951.84</ele>
        <time>2015-09-27T09:13:54Z</time>
      </trkpt>
      <trkpt lat="44.23666" lon="5.35136">
        <ele>951.84</ele>
        <time>2015-09-27T09:14:24Z</time>
      </trkpt>
      <trkpt lat="44.23666" lon="5.35136">
        <ele>952.32</ele>
        <time>2015-09-27T09:14:54Z</time>
      </trkpt>
      <trkpt lat="44.23667" lon="5.35135">
        <ele>952.32</ele>
        <time>2015-09-27T09:15:24Z</time>
      </trkpt>
      <trkpt lat="44.23667" lon="5.35135">
        <ele>952.32</ele>
        <time>2015-09-27T09:15:54Z</time>
      </trkpt>
      <trkpt lat="44.23666" lon="5.35135">
        <ele>952.32</ele>
        <time>2015-09-27T09:16:24Z</time>
      </trkpt>
      <trkpt lat="44.23659" lon="5.3514">
        <ele>952.8</ele>
        <time>2015-09-27T09:16:54Z</time>
      </trkpt>
      <trkpt lat="44.23619" lon="5.35196">
        <ele>965.3</ele>
        <time>2015-09-27T09:17:24Z</time>
      </trkpt>
      <trkpt lat="44.23593" lon="5.35221">
        <ele>965.78</ele>
        <time>2015-09-27T09:17:54Z</time>
      </trkpt>
      <trkpt lat="44.23519" lon="5.35248">
        <ele>967.22</ele>
        <time>2015-09-27T09:18:24Z</time>
      </trkpt>
      <trkpt lat="44.2345" lon="5.35287">
        <ele>973.47</ele>
        <time>2015-09-27T09:18:54Z</time>
      </trkpt>
      <trkpt lat="44.23418" lon="5.35303">
        <ele>975.88</ele>
        <time>2015-09-27T09:19:24Z</time>
      </trkpt>
      <trkpt lat="44.23362" lon="5.35337">
        <ele>987.41</ele>
        <time>2015-09-27T09:19:54Z</time>
      </trkpt>
      <trkpt lat="44.23313" lon="5.35367">
        <ele>1000.39</ele>
        <time>2015-09-27T09:20:24Z</time>
      </trkpt>
      <trkpt lat="44.23313" lon="5.35368">
        <ele>1000.87</ele>
        <time>2015-09-27T09:20:54Z</time>
      </trkpt>
      <trkpt lat="44.23263" lon="5.35396">
        <ele>1009.04</ele>
        <time>2015-09-27T09:21:24Z</time>
      </trkpt>
      <trkpt lat="44.23213" lon="5.35429">
        <ele>1021.06</ele>
        <time>2015-09-27T09:21:54Z</time>
      </trkpt>
      <trkpt lat="44.23169" lon="5.35452">
        <ele>1030.67</ele>
        <time>2015-09-27T09:22:24Z</time>
      </trkpt>
      <trkpt lat="44.23167" lon="5.35456">
        <ele>1031.15</ele>
        <time>2015-09-27T09:22:54Z</time>
      </trkpt>
      <trkpt lat="44.23167" lon="5.35456">
        <ele>1031.15</ele>
        <time>2015-09-27T09:23:24Z</time>
      </trkpt>
      <trkpt lat="44.23167" lon="5.35455">
        <ele>1031.15</ele>
        <time>2015-09-27T09:23:54Z</time>
      </trkpt>
      <trkpt lat="44.23167" lon="5.35455">
        <ele>1031.63</ele>
        <time>2015-09-27T09:24:24Z</time>
      </trkpt>
      <trkpt lat="44.23167" lon="5.35456">
        <ele>1031.63</ele>
        <time>2015-09-27T09:24:54Z</time>
      </trkpt>
      <trkpt lat="44.23167" lon="5.35456">
        <ele>1031.63</ele>
        <time>2015-09-27T09:25:24Z</time>
      </trkpt>
      <trkpt lat="44.23167" lon="5.35456">
        <ele>1031.63</ele>
        <time>2015-09-27T09:25:54Z</time>
      </trkpt>
      <trkpt lat="44.23167" lon="5.35456">
        <ele>1031.63</ele>
        <time>2015-09-27T09:26:24Z</time>
      </trkpt>
      <trkpt lat="44.23168" lon="5.35456">
        <ele>1031.63</ele>
        <time>2015-09-27T09:26:54Z</time>
      </trkpt>
      <trkpt lat="44.23155" lon="5.35456">
        <ele>1030.67</ele>
        <time>2015-09-27T09:27:24Z</time>
      </trkpt>
      <trkpt lat="44.23022" lon="5.35403">
        <ele>1015.77</ele>
        <time>2015-09-27T09:27:54Z</time>
      </trkpt>
      <trkpt lat="44.22917" lon="5.35373">
        <ele>1017.21</ele>
        <time>2015-09-27T09:28:24Z</time>
      </trkpt>
      <trkpt lat="44.22844" lon="5.35321">
        <ele>1022.02</ele>
        <time>2015-09-27T09:28:54Z</time>
      </trkpt>
      <trkpt lat="44.22865" lon="5.35242">
        <ele>1026.34</ele>
        <time>2015-09-27T09:29:24Z</time>
      </trkpt>
      <trkpt lat="44.22819" lon="5.35187">
        <ele>1032.59</ele>
        <time>2015-09-27T09:29:54Z</time>
      </trkpt>
      <trkpt lat="44.2278" lon="5.35147">
        <ele>1038.36</ele>
        <time>2015-09-27T09:30:24Z</time>
      </trkpt>
      <trkpt lat="44.22828" lon="5.35154">
        <ele>1043.65</ele>
        <time>2015-09-27T09:30:54Z</time>
      </trkpt>
      <trkpt lat="44.22865" lon="5.35151">
        <ele>1049.42</ele>
        <time>2015-09-27T09:31:24Z</time>
      </trkpt>
      <trkpt lat="44.22887" lon="5.35151">
        <ele>1052.78</ele>
        <time>2015-09-27T09:31:54Z</time>
      </trkpt>
      <trkpt lat="44.22887" lon="5.35153">
        <ele>1052.78</ele>
        <time>2015-09-27T09:32:24Z</time>
      </trkpt>
      <trkpt lat="44.22882" lon="5.35154">
        <ele>1052.78</ele>
        <time>2015-09-27T09:32:54Z</time>
      </trkpt>
      <trkpt lat="44.2279" lon="5.35167">
        <ele>1041.73</ele>
        <time>2015-09-27T09:33:24Z</time>
      </trkpt>
      <trkpt lat="44.22811" lon="5.3518">
        <ele>1034.52</ele>
        <time>2015-09-27T09:33:54Z</time>
      </trkpt>
      <trkpt lat="44.22812" lon="5.35179">
        <ele>1034.52</ele>
        <time>2015-09-27T09:34:24Z</time>
      </trkpt>
      <trkpt lat="44.22811" lon="5.35183">
        <ele>1032.59</ele>
        <time>2015-09-27T09:34:54Z</time>
      </trkpt>
      <trkpt lat="44.22781" lon="5.35201">
        <ele>1024.42</ele>
        <time>2015-09-27T09:35:24Z</time>
      </trkpt>
      <trkpt lat="44.22706" lon="5.35263">
        <ele>1010.48</ele>
        <time>2015-09-27T09:35:54Z</time>
      </trkpt>
      <trkpt lat="44.22682" lon="5.35311">
        <ele>1003.27</ele>
        <time>2015-09-27T09:36:24Z</time>
      </trkpt>
      <trkpt lat="44.22659" lon="5.35314">
        <ele>996.54</ele>
        <time>2015-09-27T09:36:54Z</time>
      </trkpt>
      <trkpt lat="44.22638" lon="5.3528">
        <ele>989.81</ele>
        <time>2015-09-27T09:37:24Z</time>
      </trkpt>
      <trkpt lat="44.22614" lon="5.35255">
        <ele>986.45</ele>
        <time>2015-09-27T09:37:54Z</time>
      </trkpt>
      <trkpt lat="44.22575" lon="5.3522">
        <ele>979.72</ele>
        <time>2015-09-27T09:38:24Z</time>
      </trkpt>
      <trkpt lat="44.22552" lon="5.35206">
        <ele>977.8</ele>
        <time>2015-09-27T09:38:54Z</time>
      </trkpt>
      <trkpt lat="44.22539" lon="5.35209">
        <ele>975.39</ele>
        <time>2015-09-27T09:39:24Z</time>
      </trkpt>
      <trkpt lat="44.22532" lon="5.35204">
        <ele>972.51</ele>
        <time>2015-09-27T09:39:54Z</time>
      </trkpt>
      <trkpt lat="44.22503" lon="5.35159">
        <ele>959.05</ele>
        <time>2015-09-27T09:40:24Z</time>
      </trkpt>
      <trkpt lat="44.22485" lon="5.35083">
        <ele>944.63</ele>
        <time>2015-09-27T09:40:54Z</time>
      </trkpt>
      <trkpt lat="44.22472" lon="5.34974">
        <ele>932.62</ele>
        <time>2015-09-27T09:41:24Z</time>
      </trkpt>
      <trkpt lat="44.22446" lon="5.34905">
        <ele>928.29</ele>
        <time>2015-09-27T09:41:54Z</time>
      </trkpt>
      <trkpt lat="44.22402" lon="5.34864">
        <ele>910.51</ele>
        <time>2015-09-27T09:42:24Z</time>
      </trkpt>
      <trkpt lat="44.22387" lon="5.34798">
        <ele>898.49</ele>
        <time>2015-09-27T09:42:54Z</time>
      </trkpt>
      <trkpt lat="44.2237" lon="5.34775">
        <ele>892.24</ele>
        <time>2015-09-27T09:43:24Z</time>
      </trkpt>
      <trkpt lat="44.2237" lon="5.34774">
        <ele>892.72</ele>
        <time>2015-09-27T09:43:54Z</time>
      </trkpt>
      <trkpt lat="44.2237" lon="5.34774">
        <ele>892.24</ele>
        <time>2015-09-27T09:44:24Z</time>
      </trkpt>
      <trkpt lat="44.22369" lon="5.34774">
        <ele>892.24</ele>
        <time>2015-09-27T09:44:54Z</time>
      </trkpt>
      <trkpt lat="44.22359" lon="5.34741">
        <ele>889.36</ele>
        <time>2015-09-27T09:45:24Z</time>
      </trkpt>
      <trkpt lat="44.22333" lon="5.34681">
        <ele>878.3</ele>
        <time>2015-09-27T09:45:54Z</time>
      </trkpt>
      <trkpt lat="44.22319" lon="5.34639">
        <ele>872.05</ele>
        <time>2015-09-27T09:46:24Z</time>
      </trkpt>
      <trkpt lat="44.22313" lon="5.34625">
        <ele>869.65</ele>
        <time>2015-09-27T09:46:54Z</time>
      </trkpt>
      <trkpt lat="44.22303" lon="5.34609">
        <ele>866.77</ele>
        <time>2015-09-27T09:47:24Z</time>
      </trkpt>
      <trkpt lat="44.22288" lon="5.34594">
        <ele>863.4</ele>
        <time>2015-09-27T09:47:54Z</time>
      </trkpt>
      <trkpt lat="44.22288" lon="5.34595">
        <ele>861.96</ele>
        <time>2015-09-27T09:48:24Z</time>
      </trkpt>
      <trkpt lat="44.2229" lon="5.34598">
        <ele>863.88</ele>
        <time>2015-09-27T09:48:54Z</time>
      </trkpt>
      <trkpt lat="44.22268" lon="5.34672">
        <ele>868.21</ele>
        <time>2015-09-27T09:49:24Z</time>
      </trkpt>
      <trkpt lat="44.22216" lon="5.34645">
        <ele>873.5</ele>
        <time>2015-09-27T09:49:54Z</time>
      </trkpt>
      <trkpt lat="44.22157" lon="5.3465">
        <ele>877.82</ele>
        <time>2015-09-27T09:50:24Z</time>
      </trkpt>
      <trkpt lat="44.22104" lon="5.34666">
        <ele>883.11</ele>
        <time>2015-09-27T09:50:54Z</time>
      </trkpt>
      <trkpt lat="44.22076" lon="5.34692">
        <ele>888.88</ele>
        <time>2015-09-27T09:51:24Z</time>
      </trkpt>
      <trkpt lat="44.22126" lon="5.34711">
        <ele>893.2</ele>
        <time>2015-09-27T09:51:54Z</time>
      </trkpt>
      <trkpt lat="44.22165" lon="5.34743">
        <ele>898.01</ele>
        <time>2015-09-27T09:52:24Z</time>
      </trkpt>
      <trkpt lat="44.22152" lon="5.3483">
        <ele>903.78</ele>
        <time>2015-09-27T09:52:54Z</time>
      </trkpt>
      <trkpt lat="44.22173" lon="5.34908">
        <ele>910.03</ele>
        <time>2015-09-27T09:53:24Z</time>
      </trkpt>
      <trkpt lat="44.22152" lon="5.34999">
        <ele>916.27</ele>
        <time>2015-09-27T09:53:54Z</time>
      </trkpt>
      <trkpt lat="44.2215" lon="5.35096">
        <ele>922.52</ele>
        <time>2015-09-27T09:54:24Z</time>
      </trkpt>
      <trkpt lat="44.22149" lon="5.3519">
        <ele>928.77</ele>
        <time>2015-09-27T09:54:54Z</time>
      </trkpt>
      <trkpt lat="44.22167" lon="5.35276">
        <ele>935.02</ele>
        <time>2015-09-27T09:55:24Z</time>
      </trkpt>
      <trkpt lat="44.22222" lon="5.35231">
        <ele>940.31</ele>
        <time>2015-09-27T09:55:54Z</time>
      </trkpt>
      <trkpt lat="44.22272" lon="5.35211">
        <ele>946.56</ele>
        <time>2015-09-27T09:56:24Z</time>
      </trkpt>
      <trkpt lat="44.22246" lon="5.35281">
        <ele>953.28</ele>
        <time>2015-09-27T09:56:54Z</time>
      </trkpt>
      <trkpt lat="44.22233" lon="5.35354">
        <ele>960.01</ele>
        <time>2015-09-27T09:57:24Z</time>
      </trkpt>
      <trkpt lat="44.22253" lon="5.35434">
        <ele>967.22</ele>
        <time>2015-09-27T09:57:54Z</time>
      </trkpt>
      <trkpt lat="44.22286" lon="5.35453">
        <ele>970.11</ele>
        <time>2015-09-27T09:58:24Z</time>
      </trkpt>
      <trkpt lat="44.22287" lon="5.35486">
        <ele>972.51</ele>
        <time>2015-09-27T09:58:54Z</time>
      </trkpt>
      <trkpt lat="44.22269" lon="5.35575">
        <ele>979.24</ele>
        <time>2015-09-27T09:59:24Z</time>
      </trkpt>
      <trkpt lat="44.22284" lon="5.35658">
        <ele>986.93</ele>
        <time>2015-09-27T09:59:54Z</time>
      </trkpt>
      <trkpt lat="44.22334" lon="5.35738">
        <ele>992.22</ele>
        <time>2015-09-27T10:00:24Z</time>
      </trkpt>
      <trkpt lat="44.2233" lon="5.35846">
        <ele>999.91</ele>
        <time>2015-09-27T10:00:54Z</time>
      </trkpt>
      <trkpt lat="44.22327" lon="5.35944">
        <ele>1002.79</ele>
        <time>2015-09-27T10:01:24Z</time>
      </trkpt>
      <trkpt lat="44.22326" lon="5.35942">
        <ele>1002.79</ele>
        <time>2015-09-27T10:01:54Z</time>
      </trkpt>
      <trkpt lat="44.22327" lon="5.35946">
        <ele>1002.79</ele>
        <time>2015-09-27T10:02:24Z</time>
      </trkpt>
      <trkpt lat="44.22352" lon="5.36013">
        <ele>1009.52</ele>
        <time>2015-09-27T10:02:54Z</time>
      </trkpt>
      <trkpt lat="44.22379" lon="5.36071">
        <ele>1016.25</ele>
        <time>2015-09-27T10:03:24Z</time>
      </trkpt>
      <trkpt lat="44.2242" lon="5.36134">
        <ele>1015.29</ele>
        <time>2015-09-27T10:03:54Z</time>
      </trkpt>
      <trkpt lat="44.2248" lon="5.36239">
        <ele>1018.17</ele>
        <time>2015-09-27T10:04:24Z</time>
      </trkpt>
      <trkpt lat="44.22536" lon="5.36333">
        <ele>1024.42</ele>
        <time>2015-09-27T10:04:54Z</time>
      </trkpt>
      <trkpt lat="44.22554" lon="5.36445">
        <ele>1029.71</ele>
        <time>2015-09-27T10:05:24Z</time>
      </trkpt>
      <trkpt lat="44.22615" lon="5.3657">
        <ele>1029.71</ele>
        <time>2015-09-27T10:05:54Z</time>
      </trkpt>
      <trkpt lat="44.22728" lon="5.36635">
        <ele>1027.79</ele>
        <time>2015-09-27T10:06:24Z</time>
      </trkpt>
      <trkpt lat="44.22792" lon="5.36747">
        <ele>1033.07</ele>
        <time>2015-09-27T10:06:54Z</time>
      </trkpt>
      <trkpt lat="44.22802" lon="5.36818">
        <ele>1039.32</ele>
        <time>2015-09-27T10:07:24Z</time>
      </trkpt>
      <trkpt lat="44.22826" lon="5.36886">
        <ele>1046.53</ele>
        <time>2015-09-27T10:07:54Z</time>
      </trkpt>
      <trkpt lat="44.22833" lon="5.36897">
        <ele>1046.53</ele>
        <time>2015-09-27T10:08:24Z</time>
      </trkpt>
      <trkpt lat="44.22833" lon="5.36898">
        <ele>1046.53</ele>
        <time>2015-09-27T10:08:54Z</time>
      </trkpt>
      <trkpt lat="44.22832" lon="5.36898">
        <ele>1046.53</ele>
        <time>2015-09-27T10:09:24Z</time>
      </trkpt>
      <trkpt lat="44.22839" lon="5.36918">
        <ele>1046.05</ele>
        <time>2015-09-27T10:09:54Z</time>
      </trkpt>
      <trkpt lat="44.22875" lon="5.37007">
        <ele>1047.97</ele>
        <time>2015-09-27T10:10:24Z</time>
      </trkpt>
      <trkpt lat="44.22916" lon="5.37058">
        <ele>1052.78</ele>
        <time>2015-09-27T10:10:54Z</time>
      </trkpt>
      <trkpt lat="44.22963" lon="5.37106">
        <ele>1056.63</ele>
        <time>2015-09-27T10:11:24Z</time>
      </trkpt>
      <trkpt lat="44.23012" lon="5.37176">
        <ele>1063.36</ele>
        <time>2015-09-27T10:11:54Z</time>
      </trkpt>
      <trkpt lat="44.23068" lon="5.37213">
        <ele>1071.05</ele>
        <time>2015-09-27T10:12:24Z</time>
      </trkpt>
      <trkpt lat="44.23122" lon="5.37248">
        <ele>1077.29</ele>
        <time>2015-09-27T10:12:54Z</time>
      </trkpt>
      <trkpt lat="44.23176" lon="5.37289">
        <ele>1083.54</ele>
        <time>2015-09-27T10:13:24Z</time>
      </trkpt>
      <trkpt lat="44.2324" lon="5.37331">
        <ele>1091.23</ele>
        <time>2015-09-27T10:13:54Z</time>
      </trkpt>
      <trkpt lat="44.233" lon="5.37387">
        <ele>1097</ele>
        <time>2015-09-27T10:14:24Z</time>
      </trkpt>
      <trkpt lat="44.2336" lon="5.37492">
        <ele>1099.4</ele>
        <time>2015-09-27T10:14:54Z</time>
      </trkpt>
      <trkpt lat="44.2347" lon="5.37645">
        <ele>1096.04</ele>
        <time>2015-09-27T10:15:24Z</time>
      </trkpt>
      <trkpt lat="44.235" lon="5.37693">
        <ele>1097.48</ele>
        <time>2015-09-27T10:15:54Z</time>
      </trkpt>
      <trkpt lat="44.23501" lon="5.37692">
        <ele>1097.48</ele>
        <time>2015-09-27T10:16:24Z</time>
      </trkpt>
      <trkpt lat="44.23501" lon="5.37692">
        <ele>1097</ele>
        <time>2015-09-27T10:16:54Z</time>
      </trkpt>
      <trkpt lat="44.23501" lon="5.37693">
        <ele>1097.48</ele>
        <time>2015-09-27T10:17:24Z</time>
      </trkpt>
      <trkpt lat="44.23501" lon="5.37702">
        <ele>1097.96</ele>
        <time>2015-09-27T10:17:54Z</time>
      </trkpt>
      <trkpt lat="44.23529" lon="5.37825">
        <ele>1101.81</ele>
        <time>2015-09-27T10:18:24Z</time>
      </trkpt>
      <trkpt lat="44.23531" lon="5.37852">
        <ele>1101.81</ele>
        <time>2015-09-27T10:18:54Z</time>
      </trkpt>
      <trkpt lat="44.23532" lon="5.37852">
        <ele>1101.33</ele>
        <time>2015-09-27T10:19:24Z</time>
      </trkpt>
      <trkpt lat="44.23532" lon="5.37852">
        <ele>1101.33</ele>
        <time>2015-09-27T10:19:54Z</time>
      </trkpt>
      <trkpt lat="44.23532" lon="5.37851">
        <ele>1101.33</ele>
        <time>2015-09-27T10:20:24Z</time>
      </trkpt>
      <trkpt lat="44.23532" lon="5.37851">
        <ele>1101.33</ele>
        <time>2015-09-27T10:20:54Z</time>
      </trkpt>
      <trkpt lat="44.23532" lon="5.37852">
        <ele>1101.33</ele>
        <time>2015-09-27T10:21:24Z</time>
      </trkpt>
      <trkpt lat="44.23532" lon="5.37851">
        <ele>1101.33</ele>
        <time>2015-09-27T10:21:54Z</time>
      </trkpt>
      <trkpt lat="44.23532" lon="5.37851">
        <ele>1101.81</ele>
        <time>2015-09-27T10:22:24Z</time>
      </trkpt>
      <trkpt lat="44.23532" lon="5.3785">
        <ele>1101.81</ele>
        <time>2015-09-27T10:22:54Z</time>
      </trkpt>
      <trkpt lat="44.23532" lon="5.37851">
        <ele>1101.81</ele>
        <time>2015-09-27T10:23:24Z</time>
      </trkpt>
      <trkpt lat="44.23532" lon="5.37851">
        <ele>1101.81</ele>
        <time>2015-09-27T10:23:54Z</time>
      </trkpt>
      <trkpt lat="44.23532" lon="5.37852">
        <ele>1101.81</ele>
        <time>2015-09-27T10:24:24Z</time>
      </trkpt>
      <trkpt lat="44.23534" lon="5.37853">
        <ele>1102.29</ele>
        <time>2015-09-27T10:24:54Z</time>
      </trkpt>
      <trkpt lat="44.2363" lon="5.38013">
        <ele>1083.54</ele>
        <time>2015-09-27T10:25:24Z</time>
      </trkpt>
      <trkpt lat="44.23657" lon="5.38043">
        <ele>1076.33</ele>
        <time>2015-09-27T10:25:54Z</time>
      </trkpt>
      <trkpt lat="44.23723" lon="5.38233">
        <ele>1046.05</ele>
        <time>2015-09-27T10:26:24Z</time>
      </trkpt>
      <trkpt lat="44.23772" lon="5.38327">
        <ele>1042.21</ele>
        <time>2015-09-27T10:26:54Z</time>
      </trkpt>
      <trkpt lat="44.23777" lon="5.38343">
        <ele>1039.32</ele>
        <time>2015-09-27T10:27:24Z</time>
      </trkpt>
      <trkpt lat="44.23822" lon="5.38402">
        <ele>1028.75</ele>
        <time>2015-09-27T10:27:54Z</time>
      </trkpt>
      <trkpt lat="44.23882" lon="5.38496">
        <ele>1007.12</ele>
        <time>2015-09-27T10:28:24Z</time>
      </trkpt>
      <trkpt lat="44.23894" lon="5.38597">
        <ele>988.37</ele>
        <time>2015-09-27T10:28:54Z</time>
      </trkpt>
      <trkpt lat="44.23887" lon="5.3861">
        <ele>984.53</ele>
        <time>2015-09-27T10:29:24Z</time>
      </trkpt>
      <trkpt lat="44.23938" lon="5.38633">
        <ele>972.99</ele>
        <time>2015-09-27T10:29:54Z</time>
      </trkpt>
      <trkpt lat="44.23924" lon="5.38675">
        <ele>964.34</ele>
        <time>2015-09-27T10:30:24Z</time>
      </trkpt>
      <trkpt lat="44.23971" lon="5.38688">
        <ele>954.25</ele>
        <time>2015-09-27T10:30:54Z</time>
      </trkpt>
      <trkpt lat="44.23987" lon="5.38728">
        <ele>939.83</ele>
        <time>2015-09-27T10:31:24Z</time>
      </trkpt>
      <trkpt lat="44.24" lon="5.38755">
        <ele>929.73</ele>
        <time>2015-09-27T10:31:54Z</time>
      </trkpt>
      <trkpt lat="44.24001" lon="5.38754">
        <ele>929.73</ele>
        <time>2015-09-27T10:32:24Z</time>
      </trkpt>
      <trkpt lat="44.24024" lon="5.3876">
        <ele>922.52</ele>
        <time>2015-09-27T10:32:54Z</time>
      </trkpt>
      <trkpt lat="44.24037" lon="5.3876">
        <ele>919.16</ele>
        <time>2015-09-27T10:33:24Z</time>
      </trkpt>
      <trkpt lat="44.24038" lon="5.38769">
        <ele>916.27</ele>
        <time>2015-09-27T10:33:54Z</time>
      </trkpt>
      <trkpt lat="44.24051" lon="5.38764">
        <ele>910.99</ele>
        <time>2015-09-27T10:34:24Z</time>
      </trkpt>
      <trkpt lat="44.24061" lon="5.38766">
        <ele>906.18</ele>
        <time>2015-09-27T10:34:54Z</time>
      </trkpt>
      <trkpt lat="44.24072" lon="5.38774">
        <ele>901.85</ele>
        <time>2015-09-27T10:35:24Z</time>
      </trkpt>
      <trkpt lat="44.24089" lon="5.38789">
        <ele>893.2</ele>
        <time>2015-09-27T10:35:54Z</time>
      </trkpt>
      <trkpt lat="44.24088" lon="5.38787">
        <ele>893.2</ele>
        <time>2015-09-27T10:36:24Z</time>
      </trkpt>
      <trkpt lat="44.24131" lon="5.38766">
        <ele>891.28</ele>
        <time>2015-09-27T10:36:54Z</time>
      </trkpt>
      <trkpt lat="44.24197" lon="5.38695">
        <ele>885.51</ele>
        <time>2015-09-27T10:37:24Z</time>
      </trkpt>
      <trkpt lat="44.24274" lon="5.38629">
        <ele>876.86</ele>
        <time>2015-09-27T10:37:54Z</time>
      </trkpt>
      <trkpt lat="44.24286" lon="5.38602">
        <ele>875.9</ele>
        <time>2015-09-27T10:38:24Z</time>
      </trkpt>
      <trkpt lat="44.24324" lon="5.3858">
        <ele>875.42</ele>
        <time>2015-09-27T10:38:54Z</time>
      </trkpt>
      <trkpt lat="44.24442" lon="5.38579">
        <ele>860.52</ele>
        <time>2015-09-27T10:39:24Z</time>
      </trkpt>
      <trkpt lat="44.24519" lon="5.38525">
        <ele>858.11</ele>
        <time>2015-09-27T10:39:54Z</time>
      </trkpt>
      <trkpt lat="44.24521" lon="5.38526">
        <ele>858.11</ele>
        <time>2015-09-27T10:40:24Z</time>
      </trkpt>
      <trkpt lat="44.24572" lon="5.38461">
        <ele>850.9</ele>
        <time>2015-09-27T10:40:54Z</time>
      </trkpt>
      <trkpt lat="44.2475" lon="5.38264">
        <ele>826.39</ele>
        <time>2015-09-27T10:41:24Z</time>
      </trkpt>
      <trkpt lat="44.24844" lon="5.38296">
        <ele>818.22</ele>
        <time>2015-09-27T10:41:54Z</time>
      </trkpt>
      <trkpt lat="44.24913" lon="5.38256">
        <ele>820.62</ele>
        <time>2015-09-27T10:42:24Z</time>
      </trkpt>
      <trkpt lat="44.25008" lon="5.38198">
        <ele>822.06</ele>
        <time>2015-09-27T10:42:54Z</time>
      </trkpt>
      <trkpt lat="44.25093" lon="5.38113">
        <ele>824.47</ele>
        <time>2015-09-27T10:43:24Z</time>
      </trkpt>
      <trkpt lat="44.25198" lon="5.38133">
        <ele>816.78</ele>
        <time>2015-09-27T10:43:54Z</time>
      </trkpt>
      <trkpt lat="44.25264" lon="5.38203">
        <ele>810.05</ele>
        <time>2015-09-27T10:44:24Z</time>
      </trkpt>
      <trkpt lat="44.25285" lon="5.38186">
        <ele>812.93</ele>
        <time>2015-09-27T10:44:54Z</time>
      </trkpt>
      <trkpt lat="44.25286" lon="5.38182">
        <ele>812.45</ele>
        <time>2015-09-27T10:45:24Z</time>
      </trkpt>
      <trkpt lat="44.25277" lon="5.38273">
        <ele>817.26</ele>
        <time>2015-09-27T10:45:54Z</time>
      </trkpt>
      <trkpt lat="44.25253" lon="5.38398">
        <ele>823.51</ele>
        <time>2015-09-27T10:46:24Z</time>
      </trkpt>
      <trkpt lat="44.25209" lon="5.38522">
        <ele>830.24</ele>
        <time>2015-09-27T10:46:54Z</time>
      </trkpt>
      <trkpt lat="44.25149" lon="5.38603">
        <ele>836.48</ele>
        <time>2015-09-27T10:47:24Z</time>
      </trkpt>
      <trkpt lat="44.25108" lon="5.38709">
        <ele>843.21</ele>
        <time>2015-09-27T10:47:54Z</time>
      </trkpt>
      <trkpt lat="44.25055" lon="5.38826">
        <ele>849.94</ele>
        <time>2015-09-27T10:48:24Z</time>
      </trkpt>
      <trkpt lat="44.25069" lon="5.38811">
        <ele>855.23</ele>
        <time>2015-09-27T10:48:54Z</time>
      </trkpt>
      <trkpt lat="44.25132" lon="5.3875">
        <ele>861.48</ele>
        <time>2015-09-27T10:49:24Z</time>
      </trkpt>
      <trkpt lat="44.25193" lon="5.38738">
        <ele>866.77</ele>
        <time>2015-09-27T10:49:54Z</time>
      </trkpt>
      <trkpt lat="44.25265" lon="5.38682">
        <ele>873.5</ele>
        <time>2015-09-27T10:50:24Z</time>
      </trkpt>
      <trkpt lat="44.25332" lon="5.38628">
        <ele>879.26</ele>
        <time>2015-09-27T10:50:54Z</time>
      </trkpt>
      <trkpt lat="44.25397" lon="5.3861">
        <ele>885.51</ele>
        <time>2015-09-27T10:51:24Z</time>
      </trkpt>
      <trkpt lat="44.2538" lon="5.38627">
        <ele>889.84</ele>
        <time>2015-09-27T10:51:54Z</time>
      </trkpt>
      <trkpt lat="44.25326" lon="5.38714">
        <ele>896.09</ele>
        <time>2015-09-27T10:52:24Z</time>
      </trkpt>
      <trkpt lat="44.25295" lon="5.38786">
        <ele>900.89</ele>
        <time>2015-09-27T10:52:54Z</time>
      </trkpt>
      <trkpt lat="44.25257" lon="5.38876">
        <ele>907.14</ele>
        <time>2015-09-27T10:53:24Z</time>
      </trkpt>
      <trkpt lat="44.25204" lon="5.38951">
        <ele>912.43</ele>
        <time>2015-09-27T10:53:54Z</time>
      </trkpt>
      <trkpt lat="44.25165" lon="5.39065">
        <ele>918.68</ele>
        <time>2015-09-27T10:54:24Z</time>
      </trkpt>
      <trkpt lat="44.25186" lon="5.39208">
        <ele>925.41</ele>
        <time>2015-09-27T10:54:54Z</time>
      </trkpt>
      <trkpt lat="44.25158" lon="5.39343">
        <ele>933.1</ele>
        <time>2015-09-27T10:55:24Z</time>
      </trkpt>
      <trkpt lat="44.25101" lon="5.39469">
        <ele>942.23</ele>
        <time>2015-09-27T10:55:54Z</time>
      </trkpt>
      <trkpt lat="44.25034" lon="5.39557">
        <ele>950.88</ele>
        <time>2015-09-27T10:56:24Z</time>
      </trkpt>
      <trkpt lat="44.25092" lon="5.39624">
        <ele>958.09</ele>
        <time>2015-09-27T10:56:54Z</time>
      </trkpt>
      <trkpt lat="44.25089" lon="5.39625">
        <ele>957.61</ele>
        <time>2015-09-27T10:57:24Z</time>
      </trkpt>
      <trkpt lat="44.2509" lon="5.39625">
        <ele>958.09</ele>
        <time>2015-09-27T10:57:54Z</time>
      </trkpt>
      <trkpt lat="44.25092" lon="5.39625">
        <ele>957.61</ele>
        <time>2015-09-27T10:58:24Z</time>
      </trkpt>
      <trkpt lat="44.25112" lon="5.39619">
        <ele>959.53</ele>
        <time>2015-09-27T10:58:54Z</time>
      </trkpt>
      <trkpt lat="44.25192" lon="5.39517">
        <ele>968.18</ele>
        <time>2015-09-27T10:59:24Z</time>
      </trkpt>
      <trkpt lat="44.25251" lon="5.39405">
        <ele>976.84</ele>
        <time>2015-09-27T10:59:54Z</time>
      </trkpt>
      <trkpt lat="44.2532" lon="5.39308">
        <ele>985.01</ele>
        <time>2015-09-27T11:00:24Z</time>
      </trkpt>
      <trkpt lat="44.25384" lon="5.3919">
        <ele>993.18</ele>
        <time>2015-09-27T11:00:54Z</time>
      </trkpt>
      <trkpt lat="44.25419" lon="5.39061">
        <ele>1000.87</ele>
        <time>2015-09-27T11:01:24Z</time>
      </trkpt>
      <trkpt lat="44.25429" lon="5.39065">
        <ele>1002.31</ele>
        <time>2015-09-27T11:01:54Z</time>
      </trkpt>
      <trkpt lat="44.25429" lon="5.39063">
        <ele>1001.83</ele>
        <time>2015-09-27T11:02:24Z</time>
      </trkpt>
      <trkpt lat="44.25429" lon="5.39063">
        <ele>1002.31</ele>
        <time>2015-09-27T11:02:54Z</time>
      </trkpt>
      <trkpt lat="44.25434" lon="5.3911">
        <ele>1005.2</ele>
        <time>2015-09-27T11:03:24Z</time>
      </trkpt>
      <trkpt lat="44.25424" lon="5.39221">
        <ele>1012.89</ele>
        <time>2015-09-27T11:03:54Z</time>
      </trkpt>
      <trkpt lat="44.2544" lon="5.39234">
        <ele>1019.13</ele>
        <time>2015-09-27T11:04:24Z</time>
      </trkpt>
      <trkpt lat="44.25439" lon="5.39254">
        <ele>1020.1</ele>
        <time>2015-09-27T11:04:54Z</time>
      </trkpt>
      <trkpt lat="44.2544" lon="5.39254">
        <ele>1020.1</ele>
        <time>2015-09-27T11:05:24Z</time>
      </trkpt>
      <trkpt lat="44.2544" lon="5.39254">
        <ele>1020.1</ele>
        <time>2015-09-27T11:05:54Z</time>
      </trkpt>
      <trkpt lat="44.25443" lon="5.39257">
        <ele>1020.1</ele>
        <time>2015-09-27T11:06:24Z</time>
      </trkpt>
      <trkpt lat="44.25441" lon="5.39329">
        <ele>1025.86</ele>
        <time>2015-09-27T11:06:54Z</time>
      </trkpt>
      <trkpt lat="44.25405" lon="5.39372">
        <ele>1032.11</ele>
        <time>2015-09-27T11:07:24Z</time>
      </trkpt>
      <trkpt lat="44.25406" lon="5.39375">
        <ele>1033.07</ele>
        <time>2015-09-27T11:07:54Z</time>
      </trkpt>
      <trkpt lat="44.25406" lon="5.39375">
        <ele>1033.07</ele>
        <time>2015-09-27T11:08:24Z</time>
      </trkpt>
      <trkpt lat="44.25406" lon="5.39376">
        <ele>1032.59</ele>
        <time>2015-09-27T11:08:54Z</time>
      </trkpt>
      <trkpt lat="44.25407" lon="5.39376">
        <ele>1032.59</ele>
        <time>2015-09-27T11:09:24Z</time>
      </trkpt>
      <trkpt lat="44.25406" lon="5.39377">
        <ele>1033.07</ele>
        <time>2015-09-27T11:09:54Z</time>
      </trkpt>
      <trkpt lat="44.25406" lon="5.39376">
        <ele>1032.59</ele>
        <time>2015-09-27T11:10:24Z</time>
      </trkpt>
      <trkpt lat="44.25406" lon="5.39375">
        <ele>1032.59</ele>
        <time>2015-09-27T11:10:54Z</time>
      </trkpt>
      <trkpt lat="44.25406" lon="5.39376">
        <ele>1032.11</ele>
        <time>2015-09-27T11:11:24Z</time>
      </trkpt>
      <trkpt lat="44.25405" lon="5.39376">
        <ele>1032.59</ele>
        <time>2015-09-27T11:11:54Z</time>
      </trkpt>
      <trkpt lat="44.25404" lon="5.39377">
        <ele>1032.59</ele>
        <time>2015-09-27T11:12:24Z</time>
      </trkpt>
      <trkpt lat="44.25405" lon="5.39377">
        <ele>1032.59</ele>
        <time>2015-09-27T11:12:54Z</time>
      </trkpt>
      <trkpt lat="44.25406" lon="5.39377">
        <ele>1032.11</ele>
        <time>2015-09-27T11:13:24Z</time>
      </trkpt>
      <trkpt lat="44.25406" lon="5.39376">
        <ele>1032.11</ele>
        <time>2015-09-27T11:13:54Z</time>
      </trkpt>
      <trkpt lat="44.25407" lon="5.39376">
        <ele>1032.11</ele>
        <time>2015-09-27T11:14:24Z</time>
      </trkpt>
      <trkpt lat="44.25406" lon="5.39376">
        <ele>1032.11</ele>
        <time>2015-09-27T11:14:54Z</time>
      </trkpt>
      <trkpt lat="44.25408" lon="5.39375">
        <ele>1032.11</ele>
        <time>2015-09-27T11:15:24Z</time>
      </trkpt>
      <trkpt lat="44.25407" lon="5.39375">
        <ele>1032.11</ele>
        <time>2015-09-27T11:15:54Z</time>
      </trkpt>
      <trkpt lat="44.25407" lon="5.39375">
        <ele>1032.11</ele>
        <time>2015-09-27T11:16:24Z</time>
      </trkpt>
      <trkpt lat="44.25407" lon="5.39376">
        <ele>1032.11</ele>
        <time>2015-09-27T11:16:54Z</time>
      </trkpt>
      <trkpt lat="44.25406" lon="5.39375">
        <ele>1032.11</ele>
        <time>2015-09-27T11:17:24Z</time>
      </trkpt>
      <trkpt lat="44.25407" lon="5.39374">
        <ele>1032.11</ele>
        <time>2015-09-27T11:17:54Z</time>
      </trkpt>
      <trkpt lat="44.25406" lon="5.39375">
        <ele>1032.11</ele>
        <time>2015-09-27T11:18:24Z</time>
      </trkpt>
      <trkpt lat="44.25406" lon="5.39375">
        <ele>1032.59</ele>
        <time>2015-09-27T11:18:54Z</time>
      </trkpt>
      <trkpt lat="44.25405" lon="5.39375">
        <ele>1032.11</ele>
        <time>2015-09-27T11:19:24Z</time>
      </trkpt>
      <trkpt lat="44.25405" lon="5.39376">
        <ele>1032.11</ele>
        <time>2015-09-27T11:19:54Z</time>
      </trkpt>
      <trkpt lat="44.25407" lon="5.39375">
        <ele>1032.11</ele>
        <time>2015-09-27T11:20:24Z</time>
      </trkpt>
      <trkpt lat="44.25407" lon="5.39376">
        <ele>1032.59</ele>
        <time>2015-09-27T11:20:54Z</time>
      </trkpt>
      <trkpt lat="44.25407" lon="5.39375">
        <ele>1032.11</ele>
        <time>2015-09-27T11:21:24Z</time>
      </trkpt>
      <trkpt lat="44.25407" lon="5.39375">
        <ele>1032.11</ele>
        <time>2015-09-27T11:21:54Z</time>
      </trkpt>
      <trkpt lat="44.25408" lon="5.39375">
        <ele>1032.59</ele>
        <time>2015-09-27T11:22:24Z</time>
      </trkpt>
      <trkpt lat="44.25408" lon="5.39375">
        <ele>1032.11</ele>
        <time>2015-09-27T11:22:54Z</time>
      </trkpt>
      <trkpt lat="44.25407" lon="5.39375">
        <ele>1032.59</ele>
        <time>2015-09-27T11:23:24Z</time>
      </trkpt>
      <trkpt lat="44.25408" lon="5.39375">
        <ele>1032.59</ele>
        <time>2015-09-27T11:23:54Z</time>
      </trkpt>
      <trkpt lat="44.25408" lon="5.39375">
        <ele>1032.59</ele>
        <time>2015-09-27T11:24:24Z</time>
      </trkpt>
      <trkpt lat="44.25408" lon="5.39375">
        <ele>1032.59</ele>
        <time>2015-09-27T11:24:54Z</time>
      </trkpt>
      <trkpt lat="44.25408" lon="5.39375">
        <ele>1032.59</ele>
        <time>2015-09-27T11:25:24Z</time>
      </trkpt>
      <trkpt lat="44.25407" lon="5.39376">
        <ele>1032.59</ele>
        <time>2015-09-27T11:25:54Z</time>
      </trkpt>
      <trkpt lat="44.25407" lon="5.39375">
        <ele>1032.59</ele>
        <time>2015-09-27T11:26:24Z</time>
      </trkpt>
      <trkpt lat="44.25407" lon="5.39375">
        <ele>1032.59</ele>
        <time>2015-09-27T11:26:54Z</time>
      </trkpt>
      <trkpt lat="44.25407" lon="5.39376">
        <ele>1033.07</ele>
        <time>2015-09-27T11:27:24Z</time>
      </trkpt>
      <trkpt lat="44.25406" lon="5.39375">
        <ele>1032.59</ele>
        <time>2015-09-27T11:27:54Z</time>
      </trkpt>
      <trkpt lat="44.25406" lon="5.39376">
        <ele>1032.59</ele>
        <time>2015-09-27T11:28:24Z</time>
      </trkpt>
      <trkpt lat="44.25406" lon="5.39377">
        <ele>1032.59</ele>
        <time>2015-09-27T11:28:54Z</time>
      </trkpt>
      <trkpt lat="44.25406" lon="5.39376">
        <ele>1033.07</ele>
        <time>2015-09-27T11:29:24Z</time>
      </trkpt>
      <trkpt lat="44.25407" lon="5.39376">
        <ele>1033.07</ele>
        <time>2015-09-27T11:29:54Z</time>
      </trkpt>
      <trkpt lat="44.25406" lon="5.39376">
        <ele>1032.59</ele>
        <time>2015-09-27T11:30:24Z</time>
      </trkpt>
      <trkpt lat="44.25407" lon="5.39375">
        <ele>1032.59</ele>
        <time>2015-09-27T11:30:54Z</time>
      </trkpt>
      <trkpt lat="44.25408" lon="5.39376">
        <ele>1032.59</ele>
        <time>2015-09-27T11:31:24Z</time>
      </trkpt>
      <trkpt lat="44.25409" lon="5.39375">
        <ele>1032.59</ele>
        <time>2015-09-27T11:31:54Z</time>
      </trkpt>
      <trkpt lat="44.25408" lon="5.39375">
        <ele>1033.07</ele>
        <time>2015-09-27T11:32:24Z</time>
      </trkpt>
      <trkpt lat="44.25408" lon="5.39376">
        <ele>1032.59</ele>
        <time>2015-09-27T11:32:54Z</time>
      </trkpt>
      <trkpt lat="44.25408" lon="5.39376">
        <ele>1032.59</ele>
        <time>2015-09-27T11:33:24Z</time>
      </trkpt>
      <trkpt lat="44.25409" lon="5.39376">
        <ele>1032.59</ele>
        <time>2015-09-27T11:33:54Z</time>
      </trkpt>
      <trkpt lat="44.25408" lon="5.39377">
        <ele>1032.59</ele>
        <time>2015-09-27T11:34:24Z</time>
      </trkpt>
      <trkpt lat="44.25407" lon="5.39377">
        <ele>1032.59</ele>
        <time>2015-09-27T11:34:54Z</time>
      </trkpt>
      <trkpt lat="44.25408" lon="5.39376">
        <ele>1033.07</ele>
        <time>2015-09-27T11:35:24Z</time>
      </trkpt>
      <trkpt lat="44.25433" lon="5.39358">
        <ele>1029.23</ele>
        <time>2015-09-27T11:35:54Z</time>
      </trkpt>
      <trkpt lat="44.25443" lon="5.39254">
        <ele>1020.1</ele>
        <time>2015-09-27T11:36:24Z</time>
      </trkpt>
      <trkpt lat="44.25424" lon="5.39219">
        <ele>1013.37</ele>
        <time>2015-09-27T11:36:54Z</time>
      </trkpt>
      <trkpt lat="44.25424" lon="5.39076">
        <ele>999.91</ele>
        <time>2015-09-27T11:37:24Z</time>
      </trkpt>
      <trkpt lat="44.25422" lon="5.39068">
        <ele>999.91</ele>
        <time>2015-09-27T11:37:54Z</time>
      </trkpt>
      <trkpt lat="44.25431" lon="5.39149">
        <ele>1007.6</ele>
        <time>2015-09-27T11:38:24Z</time>
      </trkpt>
      <trkpt lat="44.25439" lon="5.39229">
        <ele>1018.65</ele>
        <time>2015-09-27T11:38:54Z</time>
      </trkpt>
      <trkpt lat="44.25433" lon="5.39355">
        <ele>1028.75</ele>
        <time>2015-09-27T11:39:24Z</time>
      </trkpt>
      <trkpt lat="44.25406" lon="5.39373">
        <ele>1031.63</ele>
        <time>2015-09-27T11:39:54Z</time>
      </trkpt>
      <trkpt lat="44.25407" lon="5.39372">
        <ele>1031.15</ele>
        <time>2015-09-27T11:40:24Z</time>
      </trkpt>
      <trkpt lat="44.25406" lon="5.39372">
        <ele>1031.63</ele>
        <time>2015-09-27T11:40:54Z</time>
      </trkpt>
      <trkpt lat="44.25406" lon="5.39371">
        <ele>1031.63</ele>
        <time>2015-09-27T11:41:24Z</time>
      </trkpt>
      <trkpt lat="44.25405" lon="5.39372">
        <ele>1031.15</ele>
        <time>2015-09-27T11:41:54Z</time>
      </trkpt>
      <trkpt lat="44.25406" lon="5.39372">
        <ele>1031.63</ele>
        <time>2015-09-27T11:42:24Z</time>
      </trkpt>
      <trkpt lat="44.25406" lon="5.39373">
        <ele>1031.63</ele>
        <time>2015-09-27T11:42:54Z</time>
      </trkpt>
      <trkpt lat="44.25406" lon="5.39372">
        <ele>1031.63</ele>
        <time>2015-09-27T11:43:24Z</time>
      </trkpt>
      <trkpt lat="44.25406" lon="5.39371">
        <ele>1031.63</ele>
        <time>2015-09-27T11:43:54Z</time>
      </trkpt>
      <trkpt lat="44.25406" lon="5.39372">
        <ele>1031.63</ele>
        <time>2015-09-27T11:44:24Z</time>
      </trkpt>
      <trkpt lat="44.25407" lon="5.39373">
        <ele>1032.59</ele>
        <time>2015-09-27T11:44:54Z</time>
      </trkpt>
      <trkpt lat="44.25429" lon="5.39402">
        <ele>1031.15</ele>
        <time>2015-09-27T11:45:24Z</time>
      </trkpt>
      <trkpt lat="44.25434" lon="5.39463">
        <ele>1034.52</ele>
        <time>2015-09-27T11:45:54Z</time>
      </trkpt>
      <trkpt lat="44.25433" lon="5.39583">
        <ele>1039.8</ele>
        <time>2015-09-27T11:46:24Z</time>
      </trkpt>
      <trkpt lat="44.25338" lon="5.39587">
        <ele>1045.57</ele>
        <time>2015-09-27T11:46:54Z</time>
      </trkpt>
      <trkpt lat="44.25282" lon="5.39694">
        <ele>1050.38</ele>
        <time>2015-09-27T11:47:24Z</time>
      </trkpt>
      <trkpt lat="44.25276" lon="5.39701">
        <ele>1050.38</ele>
        <time>2015-09-27T11:47:54Z</time>
      </trkpt>
      <trkpt lat="44.25257" lon="5.39766">
        <ele>1048.94</ele>
        <time>2015-09-27T11:48:24Z</time>
      </trkpt>
      <trkpt lat="44.25239" lon="5.39968">
        <ele>1043.65</ele>
        <time>2015-09-27T11:48:54Z</time>
      </trkpt>
      <trkpt lat="44.25156" lon="5.40164">
        <ele>1041.25</ele>
        <time>2015-09-27T11:49:24Z</time>
      </trkpt>
      <trkpt lat="44.25053" lon="5.40358">
        <ele>1041.25</ele>
        <time>2015-09-27T11:49:54Z</time>
      </trkpt>
      <trkpt lat="44.25008" lon="5.40491">
        <ele>1045.09</ele>
        <time>2015-09-27T11:50:24Z</time>
      </trkpt>
      <trkpt lat="44.25008" lon="5.40551">
        <ele>1047.97</ele>
        <time>2015-09-27T11:50:54Z</time>
      </trkpt>
      <trkpt lat="44.25007" lon="5.40551">
        <ele>1048.45</ele>
        <time>2015-09-27T11:51:24Z</time>
      </trkpt>
      <trkpt lat="44.25007" lon="5.40557">
        <ele>1048.94</ele>
        <time>2015-09-27T11:51:54Z</time>
      </trkpt>
      <trkpt lat="44.25005" lon="5.40652">
        <ele>1057.59</ele>
        <time>2015-09-27T11:52:24Z</time>
      </trkpt>
      <trkpt lat="44.25001" lon="5.40668">
        <ele>1058.55</ele>
        <time>2015-09-27T11:52:54Z</time>
      </trkpt>
      <trkpt lat="44.25002" lon="5.40669">
        <ele>1058.07</ele>
        <time>2015-09-27T11:53:24Z</time>
      </trkpt>
      <trkpt lat="44.24992" lon="5.40749">
        <ele>1060.95</ele>
        <time>2015-09-27T11:53:54Z</time>
      </trkpt>
      <trkpt lat="44.24975" lon="5.40831">
        <ele>1064.8</ele>
        <time>2015-09-27T11:54:24Z</time>
      </trkpt>
      <trkpt lat="44.2499" lon="5.40912">
        <ele>1070.08</ele>
        <time>2015-09-27T11:54:54Z</time>
      </trkpt>
      <trkpt lat="44.25" lon="5.41004">
        <ele>1077.29</ele>
        <time>2015-09-27T11:55:24Z</time>
      </trkpt>
      <trkpt lat="44.25" lon="5.41083">
        <ele>1084.99</ele>
        <time>2015-09-27T11:55:54Z</time>
      </trkpt>
      <trkpt lat="44.24991" lon="5.41165">
        <ele>1091.71</ele>
        <time>2015-09-27T11:56:24Z</time>
      </trkpt>
      <trkpt lat="44.24977" lon="5.4123">
        <ele>1096.04</ele>
        <time>2015-09-27T11:56:54Z</time>
      </trkpt>
      <trkpt lat="44.24977" lon="5.41231">
        <ele>1095.56</ele>
        <time>2015-09-27T11:57:24Z</time>
      </trkpt>
      <trkpt lat="44.24981" lon="5.41305">
        <ele>1099.89</ele>
        <time>2015-09-27T11:57:54Z</time>
      </trkpt>
      <trkpt lat="44.25" lon="5.41398">
        <ele>1106.61</ele>
        <time>2015-09-27T11:58:24Z</time>
      </trkpt>
      <trkpt lat="44.24983" lon="5.41494">
        <ele>1113.34</ele>
        <time>2015-09-27T11:58:54Z</time>
      </trkpt>
      <trkpt lat="44.24957" lon="5.4159">
        <ele>1117.67</ele>
        <time>2015-09-27T11:59:24Z</time>
      </trkpt>
      <trkpt lat="44.24956" lon="5.4159">
        <ele>1117.67</ele>
        <time>2015-09-27T11:59:54Z</time>
      </trkpt>
      <trkpt lat="44.24957" lon="5.41591">
        <ele>1118.15</ele>
        <time>2015-09-27T12:00:24Z</time>
      </trkpt>
      <trkpt lat="44.24959" lon="5.41601">
        <ele>1119.11</ele>
        <time>2015-09-27T12:00:54Z</time>
      </trkpt>
      <trkpt lat="44.24978" lon="5.41601">
        <ele>1123.44</ele>
        <time>2015-09-27T12:01:24Z</time>
      </trkpt>
      <trkpt lat="44.25002" lon="5.41597">
        <ele>1129.69</ele>
        <time>2015-09-27T12:01:54Z</time>
      </trkpt>
      <trkpt lat="44.25047" lon="5.41568">
        <ele>1145.07</ele>
        <time>2015-09-27T12:02:24Z</time>
      </trkpt>
      <trkpt lat="44.25058" lon="5.4157">
        <ele>1149.39</ele>
        <time>2015-09-27T12:02:54Z</time>
      </trkpt>
      <trkpt lat="44.25069" lon="5.41573">
        <ele>1151.8</ele>
        <time>2015-09-27T12:03:24Z</time>
      </trkpt>
      <trkpt lat="44.25086" lon="5.41565">
        <ele>1155.16</ele>
        <time>2015-09-27T12:03:54Z</time>
      </trkpt>
      <trkpt lat="44.25097" lon="5.41526">
        <ele>1158.05</ele>
        <time>2015-09-27T12:04:24Z</time>
      </trkpt>
      <trkpt lat="44.2512" lon="5.41433">
        <ele>1159.49</ele>
        <time>2015-09-27T12:04:54Z</time>
      </trkpt>
      <trkpt lat="44.25147" lon="5.41357">
        <ele>1162.37</ele>
        <time>2015-09-27T12:05:24Z</time>
      </trkpt>
      <trkpt lat="44.25146" lon="5.41354">
        <ele>1162.37</ele>
        <time>2015-09-27T12:05:54Z</time>
      </trkpt>
      <trkpt lat="44.25146" lon="5.41352">
        <ele>1162.37</ele>
        <time>2015-09-27T12:06:24Z</time>
      </trkpt>
      <trkpt lat="44.25147" lon="5.41351">
        <ele>1162.37</ele>
        <time>2015-09-27T12:06:54Z</time>
      </trkpt>
      <trkpt lat="44.25148" lon="5.41353">
        <ele>1163.33</ele>
        <time>2015-09-27T12:07:24Z</time>
      </trkpt>
      <trkpt lat="44.25139" lon="5.41374">
        <ele>1162.85</ele>
        <time>2015-09-27T12:07:54Z</time>
      </trkpt>
      <trkpt lat="44.25138" lon="5.41375">
        <ele>1163.33</ele>
        <time>2015-09-27T12:08:24Z</time>
      </trkpt>
      <trkpt lat="44.25139" lon="5.41375">
        <ele>1162.85</ele>
        <time>2015-09-27T12:08:54Z</time>
      </trkpt>
      <trkpt lat="44.25136" lon="5.41386">
        <ele>1162.85</ele>
        <time>2015-09-27T12:09:24Z</time>
      </trkpt>
      <trkpt lat="44.25135" lon="5.41385">
        <ele>1162.85</ele>
        <time>2015-09-27T12:09:54Z</time>
      </trkpt>
      <trkpt lat="44.25135" lon="5.41385">
        <ele>1162.85</ele>
        <time>2015-09-27T12:10:24Z</time>
      </trkpt>
      <trkpt lat="44.25135" lon="5.41386">
        <ele>1162.85</ele>
        <time>2015-09-27T12:10:54Z</time>
      </trkpt>
      <trkpt lat="44.25164" lon="5.41304">
        <ele>1166.7</ele>
        <time>2015-09-27T12:11:24Z</time>
      </trkpt>
      <trkpt lat="44.25187" lon="5.41241">
        <ele>1171.5</ele>
        <time>2015-09-27T12:11:54Z</time>
      </trkpt>
      <trkpt lat="44.25222" lon="5.41174">
        <ele>1180.16</ele>
        <time>2015-09-27T12:12:24Z</time>
      </trkpt>
      <trkpt lat="44.25231" lon="5.41169">
        <ele>1183.04</ele>
        <time>2015-09-27T12:12:54Z</time>
      </trkpt>
      <trkpt lat="44.25239" lon="5.41157">
        <ele>1187.37</ele>
        <time>2015-09-27T12:13:24Z</time>
      </trkpt>
      <trkpt lat="44.25244" lon="5.41139">
        <ele>1191.21</ele>
        <time>2015-09-27T12:13:54Z</time>
      </trkpt>
      <trkpt lat="44.25253" lon="5.41124">
        <ele>1194.09</ele>
        <time>2015-09-27T12:14:24Z</time>
      </trkpt>
      <trkpt lat="44.25267" lon="5.41074">
        <ele>1201.79</ele>
        <time>2015-09-27T12:14:54Z</time>
      </trkpt>
      <trkpt lat="44.25281" lon="5.4103">
        <ele>1206.59</ele>
        <time>2015-09-27T12:15:24Z</time>
      </trkpt>
      <trkpt lat="44.25285" lon="5.41029">
        <ele>1208.03</ele>
        <time>2015-09-27T12:15:54Z</time>
      </trkpt>
      <trkpt lat="44.25286" lon="5.41018">
        <ele>1210.44</ele>
        <time>2015-09-27T12:16:24Z</time>
      </trkpt>
      <trkpt lat="44.25289" lon="5.41005">
        <ele>1212.36</ele>
        <time>2015-09-27T12:16:54Z</time>
      </trkpt>
      <trkpt lat="44.25301" lon="5.40928">
        <ele>1221.01</ele>
        <time>2015-09-27T12:17:24Z</time>
      </trkpt>
      <trkpt lat="44.25323" lon="5.40908">
        <ele>1226.3</ele>
        <time>2015-09-27T12:17:54Z</time>
      </trkpt>
      <trkpt lat="44.25328" lon="5.40899">
        <ele>1229.18</ele>
        <time>2015-09-27T12:18:24Z</time>
      </trkpt>
      <trkpt lat="44.25354" lon="5.40866">
        <ele>1234.47</ele>
        <time>2015-09-27T12:18:54Z</time>
      </trkpt>
      <trkpt lat="44.25385" lon="5.40817">
        <ele>1239.76</ele>
        <time>2015-09-27T12:19:24Z</time>
      </trkpt>
      <trkpt lat="44.254" lon="5.40734">
        <ele>1245.53</ele>
        <time>2015-09-27T12:19:54Z</time>
      </trkpt>
      <trkpt lat="44.25405" lon="5.40707">
        <ele>1248.89</ele>
        <time>2015-09-27T12:20:24Z</time>
      </trkpt>
      <trkpt lat="44.25406" lon="5.40706">
        <ele>1248.89</ele>
        <time>2015-09-27T12:20:54Z</time>
      </trkpt>
      <trkpt lat="44.25406" lon="5.40706">
        <ele>1248.89</ele>
        <time>2015-09-27T12:21:24Z</time>
      </trkpt>
      <trkpt lat="44.25406" lon="5.40706">
        <ele>1248.89</ele>
        <time>2015-09-27T12:21:54Z</time>
      </trkpt>
      <trkpt lat="44.25407" lon="5.40705">
        <ele>1249.85</ele>
        <time>2015-09-27T12:22:24Z</time>
      </trkpt>
      <trkpt lat="44.25444" lon="5.40634">
        <ele>1246.01</ele>
        <time>2015-09-27T12:22:54Z</time>
      </trkpt>
      <trkpt lat="44.25516" lon="5.40542">
        <ele>1231.11</ele>
        <time>2015-09-27T12:23:24Z</time>
      </trkpt>
      <trkpt lat="44.25561" lon="5.40476">
        <ele>1236.87</ele>
        <time>2015-09-27T12:23:54Z</time>
      </trkpt>
      <trkpt lat="44.25591" lon="5.40424">
        <ele>1241.2</ele>
        <time>2015-09-27T12:24:24Z</time>
      </trkpt>
      <trkpt lat="44.25633" lon="5.40445">
        <ele>1239.28</ele>
        <time>2015-09-27T12:24:54Z</time>
      </trkpt>
      <trkpt lat="44.25657" lon="5.40447">
        <ele>1238.32</ele>
        <time>2015-09-27T12:25:24Z</time>
      </trkpt>
      <trkpt lat="44.25682" lon="5.40434">
        <ele>1240.72</ele>
        <time>2015-09-27T12:25:54Z</time>
      </trkpt>
      <trkpt lat="44.25686" lon="5.40419">
        <ele>1244.56</ele>
        <time>2015-09-27T12:26:24Z</time>
      </trkpt>
      <trkpt lat="44.25684" lon="5.40402">
        <ele>1248.41</ele>
        <time>2015-09-27T12:26:54Z</time>
      </trkpt>
      <trkpt lat="44.25688" lon="5.40386">
        <ele>1251.29</ele>
        <time>2015-09-27T12:27:24Z</time>
      </trkpt>
      <trkpt lat="44.25692" lon="5.40362">
        <ele>1255.14</ele>
        <time>2015-09-27T12:27:54Z</time>
      </trkpt>
      <trkpt lat="44.25705" lon="5.40341">
        <ele>1258.02</ele>
        <time>2015-09-27T12:28:24Z</time>
      </trkpt>
      <trkpt lat="44.25743" lon="5.4032">
        <ele>1258.98</ele>
        <time>2015-09-27T12:28:54Z</time>
      </trkpt>
      <trkpt lat="44.25808" lon="5.40301">
        <ele>1247.93</ele>
        <time>2015-09-27T12:29:24Z</time>
      </trkpt>
      <trkpt lat="44.25811" lon="5.40281">
        <ele>1250.33</ele>
        <time>2015-09-27T12:29:54Z</time>
      </trkpt>
      <trkpt lat="44.25808" lon="5.40257">
        <ele>1252.74</ele>
        <time>2015-09-27T12:30:24Z</time>
      </trkpt>
      <trkpt lat="44.258" lon="5.40244">
        <ele>1257.06</ele>
        <time>2015-09-27T12:30:54Z</time>
      </trkpt>
      <trkpt lat="44.258" lon="5.40228">
        <ele>1259.46</ele>
        <time>2015-09-27T12:31:24Z</time>
      </trkpt>
      <trkpt lat="44.25807" lon="5.40216">
        <ele>1257.54</ele>
        <time>2015-09-27T12:31:54Z</time>
      </trkpt>
      <trkpt lat="44.25817" lon="5.40186">
        <ele>1253.22</ele>
        <time>2015-09-27T12:32:24Z</time>
      </trkpt>
      <trkpt lat="44.2585" lon="5.40079">
        <ele>1243.6</ele>
        <time>2015-09-27T12:32:54Z</time>
      </trkpt>
      <trkpt lat="44.2589" lon="5.39964">
        <ele>1237.83</ele>
        <time>2015-09-27T12:33:24Z</time>
      </trkpt>
      <trkpt lat="44.25942" lon="5.3984">
        <ele>1232.07</ele>
        <time>2015-09-27T12:33:54Z</time>
      </trkpt>
      <trkpt lat="44.26001" lon="5.39762">
        <ele>1225.82</ele>
        <time>2015-09-27T12:34:24Z</time>
      </trkpt>
      <trkpt lat="44.26001" lon="5.39761">
        <ele>1225.34</ele>
        <time>2015-09-27T12:34:54Z</time>
      </trkpt>
      <trkpt lat="44.2604" lon="5.39732">
        <ele>1228.22</ele>
        <time>2015-09-27T12:35:24Z</time>
      </trkpt>
      <trkpt lat="44.26101" lon="5.39647">
        <ele>1232.55</ele>
        <time>2015-09-27T12:35:54Z</time>
      </trkpt>
      <trkpt lat="44.26198" lon="5.39565">
        <ele>1229.18</ele>
        <time>2015-09-27T12:36:24Z</time>
      </trkpt>
      <trkpt lat="44.26285" lon="5.39496">
        <ele>1224.86</ele>
        <time>2015-09-27T12:36:54Z</time>
      </trkpt>
      <trkpt lat="44.26381" lon="5.39442">
        <ele>1220.05</ele>
        <time>2015-09-27T12:37:24Z</time>
      </trkpt>
      <trkpt lat="44.26427" lon="5.39407">
        <ele>1221.49</ele>
        <time>2015-09-27T12:37:54Z</time>
      </trkpt>
      <trkpt lat="44.26486" lon="5.39352">
        <ele>1221.01</ele>
        <time>2015-09-27T12:38:24Z</time>
      </trkpt>
      <trkpt lat="44.26568" lon="5.39304">
        <ele>1218.13</ele>
        <time>2015-09-27T12:38:54Z</time>
      </trkpt>
      <trkpt lat="44.26664" lon="5.39249">
        <ele>1217.17</ele>
        <time>2015-09-27T12:39:24Z</time>
      </trkpt>
      <trkpt lat="44.26749" lon="5.39177">
        <ele>1211.4</ele>
        <time>2015-09-27T12:39:54Z</time>
      </trkpt>
      <trkpt lat="44.26791" lon="5.39127">
        <ele>1209</ele>
        <time>2015-09-27T12:40:24Z</time>
      </trkpt>
      <trkpt lat="44.26789" lon="5.39125">
        <ele>1208.51</ele>
        <time>2015-09-27T12:40:54Z</time>
      </trkpt>
      <trkpt lat="44.26791" lon="5.39124">
        <ele>1209</ele>
        <time>2015-09-27T12:41:24Z</time>
      </trkpt>
      <trkpt lat="44.26792" lon="5.39123">
        <ele>1209.48</ele>
        <time>2015-09-27T12:41:54Z</time>
      </trkpt>
      <trkpt lat="44.26792" lon="5.39124">
        <ele>1209.48</ele>
        <time>2015-09-27T12:42:24Z</time>
      </trkpt>
      <trkpt lat="44.26831" lon="5.39042">
        <ele>1211.4</ele>
        <time>2015-09-27T12:42:54Z</time>
      </trkpt>
      <trkpt lat="44.26835" lon="5.38887">
        <ele>1206.11</ele>
        <time>2015-09-27T12:43:24Z</time>
      </trkpt>
      <trkpt lat="44.26829" lon="5.38748">
        <ele>1203.23</ele>
        <time>2015-09-27T12:43:54Z</time>
      </trkpt>
      <trkpt lat="44.2685" lon="5.38652">
        <ele>1206.11</ele>
        <time>2015-09-27T12:44:24Z</time>
      </trkpt>
      <trkpt lat="44.26914" lon="5.38533">
        <ele>1204.67</ele>
        <time>2015-09-27T12:44:54Z</time>
      </trkpt>
      <trkpt lat="44.2701" lon="5.38425">
        <ele>1197.94</ele>
        <time>2015-09-27T12:45:24Z</time>
      </trkpt>
      <trkpt lat="44.27114" lon="5.38344">
        <ele>1198.42</ele>
        <time>2015-09-27T12:45:54Z</time>
      </trkpt>
      <trkpt lat="44.2713" lon="5.38331">
        <ele>1199.86</ele>
        <time>2015-09-27T12:46:24Z</time>
      </trkpt>
      <trkpt lat="44.2713" lon="5.3833">
        <ele>1200.34</ele>
        <time>2015-09-27T12:46:54Z</time>
      </trkpt>
      <trkpt lat="44.2713" lon="5.38331">
        <ele>1199.86</ele>
        <time>2015-09-27T12:47:24Z</time>
      </trkpt>
      <trkpt lat="44.27131" lon="5.3833">
        <ele>1199.86</ele>
        <time>2015-09-27T12:47:54Z</time>
      </trkpt>
      <trkpt lat="44.27131" lon="5.3833">
        <ele>1200.34</ele>
        <time>2015-09-27T12:48:24Z</time>
      </trkpt>
      <trkpt lat="44.27131" lon="5.3833">
        <ele>1200.34</ele>
        <time>2015-09-27T12:48:54Z</time>
      </trkpt>
      <trkpt lat="44.2714" lon="5.38316">
        <ele>1197.94</ele>
        <time>2015-09-27T12:49:24Z</time>
      </trkpt>
      <trkpt lat="44.27184" lon="5.38273">
        <ele>1178.71</ele>
        <time>2015-09-27T12:49:54Z</time>
      </trkpt>
      <trkpt lat="44.27188" lon="5.38214">
        <ele>1166.22</ele>
        <time>2015-09-27T12:50:24Z</time>
      </trkpt>
      <trkpt lat="44.27186" lon="5.3821">
        <ele>1166.22</ele>
        <time>2015-09-27T12:50:54Z</time>
      </trkpt>
      <trkpt lat="44.27183" lon="5.38205">
        <ele>1165.74</ele>
        <time>2015-09-27T12:51:24Z</time>
      </trkpt>
      <trkpt lat="44.27166" lon="5.38132">
        <ele>1152.76</ele>
        <time>2015-09-27T12:51:54Z</time>
      </trkpt>
      <trkpt lat="44.27187" lon="5.38041">
        <ele>1128.73</ele>
        <time>2015-09-27T12:52:24Z</time>
      </trkpt>
      <trkpt lat="44.27181" lon="5.37944">
        <ele>1107.1</ele>
        <time>2015-09-27T12:52:54Z</time>
      </trkpt>
      <trkpt lat="44.27183" lon="5.37875">
        <ele>1092.2</ele>
        <time>2015-09-27T12:53:24Z</time>
      </trkpt>
      <trkpt lat="44.27182" lon="5.37875">
        <ele>1092.68</ele>
        <time>2015-09-27T12:53:54Z</time>
      </trkpt>
      <trkpt lat="44.27182" lon="5.37875">
        <ele>1092.2</ele>
        <time>2015-09-27T12:54:24Z</time>
      </trkpt>
      <trkpt lat="44.27182" lon="5.37875">
        <ele>1092.2</ele>
        <time>2015-09-27T12:54:54Z</time>
      </trkpt>
      <trkpt lat="44.27183" lon="5.37873">
        <ele>1092.68</ele>
        <time>2015-09-27T12:55:24Z</time>
      </trkpt>
      <trkpt lat="44.27187" lon="5.37796">
        <ele>1085.47</ele>
        <time>2015-09-27T12:55:54Z</time>
      </trkpt>
      <trkpt lat="44.27232" lon="5.37789">
        <ele>1082.1</ele>
        <time>2015-09-27T12:56:24Z</time>
      </trkpt>
      <trkpt lat="44.27271" lon="5.37854">
        <ele>1071.05</ele>
        <time>2015-09-27T12:56:54Z</time>
      </trkpt>
      <trkpt lat="44.27325" lon="5.37985">
        <ele>1068.64</ele>
        <time>2015-09-27T12:57:24Z</time>
      </trkpt>
      <trkpt lat="44.27358" lon="5.38118">
        <ele>1071.05</ele>
        <time>2015-09-27T12:57:54Z</time>
      </trkpt>
      <trkpt lat="44.27357" lon="5.38196">
        <ele>1076.33</ele>
        <time>2015-09-27T12:58:24Z</time>
      </trkpt>
      <trkpt lat="44.2736" lon="5.38197">
        <ele>1075.85</ele>
        <time>2015-09-27T12:58:54Z</time>
      </trkpt>
      <trkpt lat="44.27361" lon="5.38198">
        <ele>1075.85</ele>
        <time>2015-09-27T12:59:24Z</time>
      </trkpt>
      <trkpt lat="44.27366" lon="5.38257">
        <ele>1067.68</ele>
        <time>2015-09-27T12:59:54Z</time>
      </trkpt>
      <trkpt lat="44.27397" lon="5.38264">
        <ele>1055.67</ele>
        <time>2015-09-27T13:00:24Z</time>
      </trkpt>
      <trkpt lat="44.27449" lon="5.38173">
        <ele>1027.31</ele>
        <time>2015-09-27T13:00:54Z</time>
      </trkpt>
      <trkpt lat="44.27457" lon="5.38079">
        <ele>1007.6</ele>
        <time>2015-09-27T13:01:24Z</time>
      </trkpt>
      <trkpt lat="44.27457" lon="5.38041">
        <ele>1004.23</ele>
        <time>2015-09-27T13:01:54Z</time>
      </trkpt>
      <trkpt lat="44.27453" lon="5.37932">
        <ele>994.62</ele>
        <time>2015-09-27T13:02:24Z</time>
      </trkpt>
      <trkpt lat="44.27486" lon="5.37835">
        <ele>988.85</ele>
        <time>2015-09-27T13:02:54Z</time>
      </trkpt>
      <trkpt lat="44.27566" lon="5.37809">
        <ele>984.05</ele>
        <time>2015-09-27T13:03:24Z</time>
      </trkpt>
      <trkpt lat="44.2767" lon="5.37722">
        <ele>978.28</ele>
        <time>2015-09-27T13:03:54Z</time>
      </trkpt>
      <trkpt lat="44.27679" lon="5.37714">
        <ele>978.76</ele>
        <time>2015-09-27T13:04:24Z</time>
      </trkpt>
      <trkpt lat="44.27745" lon="5.37675">
        <ele>977.8</ele>
        <time>2015-09-27T13:04:54Z</time>
      </trkpt>
      <trkpt lat="44.27831" lon="5.37627">
        <ele>979.24</ele>
        <time>2015-09-27T13:05:24Z</time>
      </trkpt>
      <trkpt lat="44.2791" lon="5.37512">
        <ele>977.32</ele>
        <time>2015-09-27T13:05:54Z</time>
      </trkpt>
      <trkpt lat="44.2802" lon="5.37432">
        <ele>973.95</ele>
        <time>2015-09-27T13:06:24Z</time>
      </trkpt>
      <trkpt lat="44.2802" lon="5.37428">
        <ele>974.43</ele>
        <time>2015-09-27T13:06:54Z</time>
      </trkpt>
      <trkpt lat="44.2802" lon="5.37424">
        <ele>974.43</ele>
        <time>2015-09-27T13:07:24Z</time>
      </trkpt>
      <trkpt lat="44.28086" lon="5.37325">
        <ele>969.63</ele>
        <time>2015-09-27T13:07:54Z</time>
      </trkpt>
      <trkpt lat="44.28148" lon="5.37167">
        <ele>962.42</ele>
        <time>2015-09-27T13:08:24Z</time>
      </trkpt>
      <trkpt lat="44.28109" lon="5.3719">
        <ele>970.59</ele>
        <time>2015-09-27T13:08:54Z</time>
      </trkpt>
      <trkpt lat="44.28067" lon="5.37238">
        <ele>980.2</ele>
        <time>2015-09-27T13:09:24Z</time>
      </trkpt>
      <trkpt lat="44.28022" lon="5.37267">
        <ele>987.41</ele>
        <time>2015-09-27T13:09:54Z</time>
      </trkpt>
      <trkpt lat="44.27976" lon="5.37308">
        <ele>1002.31</ele>
        <time>2015-09-27T13:10:24Z</time>
      </trkpt>
      <trkpt lat="44.27924" lon="5.37347">
        <ele>1014.33</ele>
        <time>2015-09-27T13:10:54Z</time>
      </trkpt>
      <trkpt lat="44.279" lon="5.37352">
        <ele>1018.65</ele>
        <time>2015-09-27T13:11:24Z</time>
      </trkpt>
      <trkpt lat="44.27899" lon="5.37354">
        <ele>1018.65</ele>
        <time>2015-09-27T13:11:54Z</time>
      </trkpt>
      <trkpt lat="44.27899" lon="5.37354">
        <ele>1019.13</ele>
        <time>2015-09-27T13:12:24Z</time>
      </trkpt>
      <trkpt lat="44.27898" lon="5.37351">
        <ele>1019.13</ele>
        <time>2015-09-27T13:12:54Z</time>
      </trkpt>
      <trkpt lat="44.279" lon="5.37342">
        <ele>1020.1</ele>
        <time>2015-09-27T13:13:24Z</time>
      </trkpt>
      <trkpt lat="44.27911" lon="5.37314">
        <ele>1020.58</ele>
        <time>2015-09-27T13:13:54Z</time>
      </trkpt>
      <trkpt lat="44.27918" lon="5.37317">
        <ele>1017.21</ele>
        <time>2015-09-27T13:14:24Z</time>
      </trkpt>
      <trkpt lat="44.27922" lon="5.37313">
        <ele>1016.25</ele>
        <time>2015-09-27T13:14:54Z</time>
      </trkpt>
      <trkpt lat="44.27951" lon="5.37257">
        <ele>1016.25</ele>
        <time>2015-09-27T13:15:24Z</time>
      </trkpt>
      <trkpt lat="44.27996" lon="5.37122">
        <ele>1016.73</ele>
        <time>2015-09-27T13:15:54Z</time>
      </trkpt>
      <trkpt lat="44.28044" lon="5.36991">
        <ele>1018.17</ele>
        <time>2015-09-27T13:16:24Z</time>
      </trkpt>
      <trkpt lat="44.28081" lon="5.36871">
        <ele>1024.9</ele>
        <time>2015-09-27T13:16:54Z</time>
      </trkpt>
      <trkpt lat="44.28029" lon="5.36769">
        <ele>1028.75</ele>
        <time>2015-09-27T13:17:24Z</time>
      </trkpt>
      <trkpt lat="44.27994" lon="5.3664">
        <ele>1031.63</ele>
        <time>2015-09-27T13:17:54Z</time>
      </trkpt>
      <trkpt lat="44.27935" lon="5.3651">
        <ele>1032.11</ele>
        <time>2015-09-27T13:18:24Z</time>
      </trkpt>
      <trkpt lat="44.27916" lon="5.36463">
        <ele>1033.07</ele>
        <time>2015-09-27T13:18:54Z</time>
      </trkpt>
      <trkpt lat="44.27912" lon="5.36454">
        <ele>1034.52</ele>
        <time>2015-09-27T13:19:24Z</time>
      </trkpt>
      <trkpt lat="44.27891" lon="5.36345">
        <ele>1043.65</ele>
        <time>2015-09-27T13:19:54Z</time>
      </trkpt>
      <trkpt lat="44.27828" lon="5.36248">
        <ele>1040.76</ele>
        <time>2015-09-27T13:20:24Z</time>
      </trkpt>
      <trkpt lat="44.27751" lon="5.36219">
        <ele>1040.76</ele>
        <time>2015-09-27T13:20:54Z</time>
      </trkpt>
      <trkpt lat="44.27775" lon="5.36097">
        <ele>1047.49</ele>
        <time>2015-09-27T13:21:24Z</time>
      </trkpt>
      <trkpt lat="44.27831" lon="5.35985">
        <ele>1056.63</ele>
        <time>2015-09-27T13:21:54Z</time>
      </trkpt>
      <trkpt lat="44.27833" lon="5.35985">
        <ele>1056.63</ele>
        <time>2015-09-27T13:22:24Z</time>
      </trkpt>
      <trkpt lat="44.27829" lon="5.35984">
        <ele>1056.15</ele>
        <time>2015-09-27T13:22:54Z</time>
      </trkpt>
      <trkpt lat="44.27829" lon="5.35985">
        <ele>1056.15</ele>
        <time>2015-09-27T13:23:24Z</time>
      </trkpt>
      <trkpt lat="44.27829" lon="5.35986">
        <ele>1056.15</ele>
        <time>2015-09-27T13:23:54Z</time>
      </trkpt>
      <trkpt lat="44.27828" lon="5.35985">
        <ele>1055.67</ele>
        <time>2015-09-27T13:24:24Z</time>
      </trkpt>
      <trkpt lat="44.27828" lon="5.35984">
        <ele>1055.67</ele>
        <time>2015-09-27T13:24:54Z</time>
      </trkpt>
      <trkpt lat="44.27882" lon="5.35925">
        <ele>1061.43</ele>
        <time>2015-09-27T13:25:24Z</time>
      </trkpt>
      <trkpt lat="44.27894" lon="5.35913">
        <ele>1063.36</ele>
        <time>2015-09-27T13:25:54Z</time>
      </trkpt>
      <trkpt lat="44.27929" lon="5.3581">
        <ele>1071.53</ele>
        <time>2015-09-27T13:26:24Z</time>
      </trkpt>
      <trkpt lat="44.27954" lon="5.35721">
        <ele>1077.78</ele>
        <time>2015-09-27T13:26:54Z</time>
      </trkpt>
      <trkpt lat="44.27994" lon="5.3551">
        <ele>1067.2</ele>
        <time>2015-09-27T13:27:24Z</time>
      </trkpt>
      <trkpt lat="44.27991" lon="5.35389">
        <ele>1066.72</ele>
        <time>2015-09-27T13:27:54Z</time>
      </trkpt>
      <trkpt lat="44.27991" lon="5.35385">
        <ele>1066.72</ele>
        <time>2015-09-27T13:28:24Z</time>
      </trkpt>
      <trkpt lat="44.27991" lon="5.35384">
        <ele>1066.72</ele>
        <time>2015-09-27T13:28:54Z</time>
      </trkpt>
      <trkpt lat="44.2799" lon="5.35383">
        <ele>1067.2</ele>
        <time>2015-09-27T13:29:24Z</time>
      </trkpt>
      <trkpt lat="44.27986" lon="5.35292">
        <ele>1073.45</ele>
        <time>2015-09-27T13:29:54Z</time>
      </trkpt>
      <trkpt lat="44.27997" lon="5.35159">
        <ele>1079.7</ele>
        <time>2015-09-27T13:30:24Z</time>
      </trkpt>
      <trkpt lat="44.27998" lon="5.35031">
        <ele>1084.99</ele>
        <time>2015-09-27T13:30:54Z</time>
      </trkpt>
      <trkpt lat="44.27994" lon="5.34888">
        <ele>1084.5</ele>
        <time>2015-09-27T13:31:24Z</time>
      </trkpt>
      <trkpt lat="44.28" lon="5.34703">
        <ele>1079.22</ele>
        <time>2015-09-27T13:31:54Z</time>
      </trkpt>
      <trkpt lat="44.28014" lon="5.34648">
        <ele>1078.74</ele>
        <time>2015-09-27T13:32:24Z</time>
      </trkpt>
      <trkpt lat="44.28014" lon="5.34647">
        <ele>1078.74</ele>
        <time>2015-09-27T13:32:54Z</time>
      </trkpt>
      <trkpt lat="44.28014" lon="5.34644">
        <ele>1078.74</ele>
        <time>2015-09-27T13:33:24Z</time>
      </trkpt>
      <trkpt lat="44.28013" lon="5.34503">
        <ele>1078.26</ele>
        <time>2015-09-27T13:33:54Z</time>
      </trkpt>
      <trkpt lat="44.2801" lon="5.34382">
        <ele>1084.02</ele>
        <time>2015-09-27T13:34:24Z</time>
      </trkpt>
      <trkpt lat="44.2801" lon="5.34265">
        <ele>1082.1</ele>
        <time>2015-09-27T13:34:54Z</time>
      </trkpt>
      <trkpt lat="44.2802" lon="5.34134">
        <ele>1085.95</ele>
        <time>2015-09-27T13:35:24Z</time>
      </trkpt>
      <trkpt lat="44.28027" lon="5.34016">
        <ele>1090.75</ele>
        <time>2015-09-27T13:35:54Z</time>
      </trkpt>
      <trkpt lat="44.28071" lon="5.33886">
        <ele>1091.23</ele>
        <time>2015-09-27T13:36:24Z</time>
      </trkpt>
      <trkpt lat="44.28089" lon="5.33807">
        <ele>1091.23</ele>
        <time>2015-09-27T13:36:54Z</time>
      </trkpt>
      <trkpt lat="44.28088" lon="5.33807">
        <ele>1091.23</ele>
        <time>2015-09-27T13:37:24Z</time>
      </trkpt>
      <trkpt lat="44.28087" lon="5.33808">
        <ele>1091.23</ele>
        <time>2015-09-27T13:37:54Z</time>
      </trkpt>
      <trkpt lat="44.28088" lon="5.33808">
        <ele>1091.23</ele>
        <time>2015-09-27T13:38:24Z</time>
      </trkpt>
      <trkpt lat="44.28089" lon="5.33808">
        <ele>1091.23</ele>
        <time>2015-09-27T13:38:54Z</time>
      </trkpt>
      <trkpt lat="44.2809" lon="5.33808">
        <ele>1091.23</ele>
        <time>2015-09-27T13:39:24Z</time>
      </trkpt>
      <trkpt lat="44.28089" lon="5.3381">
        <ele>1090.75</ele>
        <time>2015-09-27T13:39:54Z</time>
      </trkpt>
      <trkpt lat="44.28089" lon="5.33809">
        <ele>1090.75</ele>
        <time>2015-09-27T13:40:24Z</time>
      </trkpt>
      <trkpt lat="44.28088" lon="5.3381">
        <ele>1091.23</ele>
        <time>2015-09-27T13:40:54Z</time>
      </trkpt>
      <trkpt lat="44.28088" lon="5.33809">
        <ele>1090.75</ele>
        <time>2015-09-27T13:41:24Z</time>
      </trkpt>
      <trkpt lat="44.28089" lon="5.33808">
        <ele>1090.75</ele>
        <time>2015-09-27T13:41:54Z</time>
      </trkpt>
      <trkpt lat="44.28089" lon="5.33803">
        <ele>1090.75</ele>
        <time>2015-09-27T13:42:24Z</time>
      </trkpt>
      <trkpt lat="44.28073" lon="5.33659">
        <ele>1073.45</ele>
        <time>2015-09-27T13:42:54Z</time>
      </trkpt>
      <trkpt lat="44.28093" lon="5.33583">
        <ele>1076.81</ele>
        <time>2015-09-27T13:43:24Z</time>
      </trkpt>
      <trkpt lat="44.28129" lon="5.3352">
        <ele>1083.06</ele>
        <time>2015-09-27T13:43:54Z</time>
      </trkpt>
      <trkpt lat="44.28144" lon="5.33444">
        <ele>1081.14</ele>
        <time>2015-09-27T13:44:24Z</time>
      </trkpt>
      <trkpt lat="44.28152" lon="5.33457">
        <ele>1082.1</ele>
        <time>2015-09-27T13:44:54Z</time>
      </trkpt>
      <trkpt lat="44.28143" lon="5.33499">
        <ele>1082.1</ele>
        <time>2015-09-27T13:45:24Z</time>
      </trkpt>
      <trkpt lat="44.28145" lon="5.33509">
        <ele>1083.06</ele>
        <time>2015-09-27T13:45:54Z</time>
      </trkpt>
      <trkpt lat="44.28146" lon="5.33508">
        <ele>1083.54</ele>
        <time>2015-09-27T13:46:24Z</time>
      </trkpt>
      <trkpt lat="44.28138" lon="5.33487">
        <ele>1081.62</ele>
        <time>2015-09-27T13:46:54Z</time>
      </trkpt>
      <trkpt lat="44.28143" lon="5.3339">
        <ele>1075.37</ele>
        <time>2015-09-27T13:47:24Z</time>
      </trkpt>
      <trkpt lat="44.28204" lon="5.33251">
        <ele>1059.99</ele>
        <time>2015-09-27T13:47:54Z</time>
      </trkpt>
      <trkpt lat="44.28237" lon="5.3312">
        <ele>1044.61</ele>
        <time>2015-09-27T13:48:24Z</time>
      </trkpt>
      <trkpt lat="44.28245" lon="5.33066">
        <ele>1038.84</ele>
        <time>2015-09-27T13:48:54Z</time>
      </trkpt>
      <trkpt lat="44.28298" lon="5.32911">
        <ele>1025.86</ele>
        <time>2015-09-27T13:49:24Z</time>
      </trkpt>
      <trkpt lat="44.28393" lon="5.32667">
        <ele>1006.16</ele>
        <time>2015-09-27T13:49:54Z</time>
      </trkpt>
      <trkpt lat="44.28439" lon="5.32506">
        <ele>1008.08</ele>
        <time>2015-09-27T13:50:24Z</time>
      </trkpt>
      <trkpt lat="44.28451" lon="5.32422">
        <ele>1008.56</ele>
        <time>2015-09-27T13:50:54Z</time>
      </trkpt>
      <trkpt lat="44.28482" lon="5.32433">
        <ele>1010.48</ele>
        <time>2015-09-27T13:51:24Z</time>
      </trkpt>
      <trkpt lat="44.28482" lon="5.32433">
        <ele>1010.96</ele>
        <time>2015-09-27T13:51:54Z</time>
      </trkpt>
      <trkpt lat="44.28502" lon="5.3235">
        <ele>1005.2</ele>
        <time>2015-09-27T13:52:24Z</time>
      </trkpt>
      <trkpt lat="44.28511" lon="5.32328">
        <ele>1004.23</ele>
        <time>2015-09-27T13:52:54Z</time>
      </trkpt>
      <trkpt lat="44.28511" lon="5.32317">
        <ele>1002.79</ele>
        <time>2015-09-27T13:53:24Z</time>
      </trkpt>
      <trkpt lat="44.28508" lon="5.32296">
        <ele>998.95</ele>
        <time>2015-09-27T13:53:54Z</time>
      </trkpt>
      <trkpt lat="44.28482" lon="5.32277">
        <ele>993.66</ele>
        <time>2015-09-27T13:54:24Z</time>
      </trkpt>
      <trkpt lat="44.28383" lon="5.32189">
        <ele>974.91</ele>
        <time>2015-09-27T13:54:54Z</time>
      </trkpt>
      <trkpt lat="44.28329" lon="5.3204">
        <ele>955.21</ele>
        <time>2015-09-27T13:55:24Z</time>
      </trkpt>
      <trkpt lat="44.28328" lon="5.3204">
        <ele>955.21</ele>
        <time>2015-09-27T13:55:54Z</time>
      </trkpt>
      <trkpt lat="44.28329" lon="5.32039">
        <ele>954.73</ele>
        <time>2015-09-27T13:56:24Z</time>
      </trkpt>
      <trkpt lat="44.28464" lon="5.31953">
        <ele>943.67</ele>
        <time>2015-09-27T13:56:54Z</time>
      </trkpt>
      <trkpt lat="44.28593" lon="5.31915">
        <ele>941.75</ele>
        <time>2015-09-27T13:57:24Z</time>
      </trkpt>
      <trkpt lat="44.28591" lon="5.3191">
        <ele>941.75</ele>
        <time>2015-09-27T13:57:54Z</time>
      </trkpt>
      <trkpt lat="44.28594" lon="5.31895">
        <ele>939.35</ele>
        <time>2015-09-27T13:58:24Z</time>
      </trkpt>
      <trkpt lat="44.28617" lon="5.3179">
        <ele>927.33</ele>
        <time>2015-09-27T13:58:54Z</time>
      </trkpt>
      <trkpt lat="44.28599" lon="5.31693">
        <ele>919.16</ele>
        <time>2015-09-27T13:59:24Z</time>
      </trkpt>
      <trkpt lat="44.28625" lon="5.3162">
        <ele>916.75</ele>
        <time>2015-09-27T13:59:54Z</time>
      </trkpt>
      <trkpt lat="44.28632" lon="5.31601">
        <ele>914.83</ele>
        <time>2015-09-27T14:00:24Z</time>
      </trkpt>
      <trkpt lat="44.28654" lon="5.315">
        <ele>895.61</ele>
        <time>2015-09-27T14:00:54Z</time>
      </trkpt>
      <trkpt lat="44.28608" lon="5.31417">
        <ele>880.71</ele>
        <time>2015-09-27T14:01:24Z</time>
      </trkpt>
      <trkpt lat="44.28589" lon="5.3123">
        <ele>874.46</ele>
        <time>2015-09-27T14:01:54Z</time>
      </trkpt>
      <trkpt lat="44.28609" lon="5.31008">
        <ele>877.34</ele>
        <time>2015-09-27T14:02:24Z</time>
      </trkpt>
      <trkpt lat="44.28615" lon="5.31001">
        <ele>877.34</ele>
        <time>2015-09-27T14:02:54Z</time>
      </trkpt>
      <trkpt lat="44.28677" lon="5.30758">
        <ele>860.52</ele>
        <time>2015-09-27T14:03:24Z</time>
      </trkpt>
      <trkpt lat="44.28704" lon="5.30617">
        <ele>854.75</ele>
        <time>2015-09-27T14:03:54Z</time>
      </trkpt>
      <trkpt lat="44.28772" lon="5.30505">
        <ele>859.56</ele>
        <time>2015-09-27T14:04:24Z</time>
      </trkpt>
      <trkpt lat="44.28845" lon="5.30463">
        <ele>844.66</ele>
        <time>2015-09-27T14:04:54Z</time>
      </trkpt>
      <trkpt lat="44.28848" lon="5.30262">
        <ele>814.37</ele>
        <time>2015-09-27T14:05:24Z</time>
      </trkpt>
      <trkpt lat="44.28838" lon="5.30183">
        <ele>805.72</ele>
        <time>2015-09-27T14:05:54Z</time>
      </trkpt>
      <trkpt lat="44.28841" lon="5.30114">
        <ele>787.94</ele>
        <time>2015-09-27T14:06:24Z</time>
      </trkpt>
      <trkpt lat="44.28833" lon="5.29969">
        <ele>753.33</ele>
        <time>2015-09-27T14:06:54Z</time>
      </trkpt>
      <trkpt lat="44.28809" lon="5.2984">
        <ele>724.97</ele>
        <time>2015-09-27T14:07:24Z</time>
      </trkpt>
      <trkpt lat="44.28801" lon="5.29827">
        <ele>723.05</ele>
        <time>2015-09-27T14:07:54Z</time>
      </trkpt>
      <trkpt lat="44.28798" lon="5.29825">
        <ele>722.57</ele>
        <time>2015-09-27T14:08:24Z</time>
      </trkpt>
      <trkpt lat="44.28786" lon="5.2977">
        <ele>716.8</ele>
        <time>2015-09-27T14:08:54Z</time>
      </trkpt>
      <trkpt lat="44.28797" lon="5.29751">
        <ele>704.78</ele>
        <time>2015-09-27T14:09:24Z</time>
      </trkpt>
      <trkpt lat="44.28825" lon="5.29716">
        <ele>683.63</ele>
        <time>2015-09-27T14:09:54Z</time>
      </trkpt>
      <trkpt lat="44.28833" lon="5.29673">
        <ele>667.29</ele>
        <time>2015-09-27T14:10:24Z</time>
      </trkpt>
      <trkpt lat="44.28839" lon="5.29638">
        <ele>651.91</ele>
        <time>2015-09-27T14:10:54Z</time>
      </trkpt>
      <trkpt lat="44.28836" lon="5.2962">
        <ele>649.99</ele>
        <time>2015-09-27T14:11:24Z</time>
      </trkpt>
      <trkpt lat="44.28837" lon="5.2962">
        <ele>649.99</ele>
        <time>2015-09-27T14:11:54Z</time>
      </trkpt>
      <trkpt lat="44.28837" lon="5.2962">
        <ele>649.99</ele>
        <time>2015-09-27T14:12:24Z</time>
      </trkpt>
      <trkpt lat="44.28838" lon="5.2962">
        <ele>649.51</ele>
        <time>2015-09-27T14:12:54Z</time>
      </trkpt>
      <trkpt lat="44.28848" lon="5.2958">
        <ele>653.35</ele>
        <time>2015-09-27T14:13:24Z</time>
      </trkpt>
      <trkpt lat="44.28859" lon="5.29571">
        <ele>653.35</ele>
        <time>2015-09-27T14:13:54Z</time>
      </trkpt>
      <trkpt lat="44.28896" lon="5.29471">
        <ele>644.7</ele>
        <time>2015-09-27T14:14:24Z</time>
      </trkpt>
      <trkpt lat="44.28952" lon="5.29411">
        <ele>640.38</ele>
        <time>2015-09-27T14:14:54Z</time>
      </trkpt>
      <trkpt lat="44.28929" lon="5.29386">
        <ele>632.68</ele>
        <time>2015-09-27T14:15:24Z</time>
      </trkpt>
      <trkpt lat="44.28947" lon="5.29281">
        <ele>610.57</ele>
        <time>2015-09-27T14:15:54Z</time>
      </trkpt>
      <trkpt lat="44.28923" lon="5.29238">
        <ele>600.48</ele>
        <time>2015-09-27T14:16:24Z</time>
      </trkpt>
      <trkpt lat="44.28882" lon="5.29165">
        <ele>594.71</ele>
        <time>2015-09-27T14:16:54Z</time>
      </trkpt>
      <trkpt lat="44.2889" lon="5.29037">
        <ele>574.04</ele>
        <time>2015-09-27T14:17:24Z</time>
      </trkpt>
      <trkpt lat="44.28865" lon="5.28985">
        <ele>556.26</ele>
        <time>2015-09-27T14:17:54Z</time>
      </trkpt>
      <trkpt lat="44.28844" lon="5.2894">
        <ele>539.92</ele>
        <time>2015-09-27T14:18:24Z</time>
      </trkpt>
      <trkpt lat="44.28814" lon="5.28943">
        <ele>531.27</ele>
        <time>2015-09-27T14:18:54Z</time>
      </trkpt>
      <trkpt lat="44.28811" lon="5.28941">
        <ele>530.79</ele>
        <time>2015-09-27T14:19:24Z</time>
      </trkpt>
      <trkpt lat="44.28811" lon="5.2894">
        <ele>530.3</ele>
        <time>2015-09-27T14:19:54Z</time>
      </trkpt>
      <trkpt lat="44.28811" lon="5.2894">
        <ele>530.3</ele>
        <time>2015-09-27T14:20:24Z</time>
      </trkpt>
      <trkpt lat="44.28792" lon="5.28945">
        <ele>526.94</ele>
        <time>2015-09-27T14:20:54Z</time>
      </trkpt>
      <trkpt lat="44.28754" lon="5.28903">
        <ele>524.06</ele>
        <time>2015-09-27T14:21:24Z</time>
      </trkpt>
      <trkpt lat="44.28775" lon="5.2883">
        <ele>515.4</ele>
        <time>2015-09-27T14:21:54Z</time>
      </trkpt>
      <trkpt lat="44.28647" lon="5.28708">
        <ele>485.6</ele>
        <time>2015-09-27T14:22:24Z</time>
      </trkpt>
      <trkpt lat="44.28536" lon="5.28673">
        <ele>461.57</ele>
        <time>2015-09-27T14:22:54Z</time>
      </trkpt>
      <trkpt lat="44.28536" lon="5.28671">
        <ele>461.57</ele>
        <time>2015-09-27T14:23:24Z</time>
      </trkpt>
      <trkpt lat="44.28535" lon="5.2867">
        <ele>461.09</ele>
        <time>2015-09-27T14:23:54Z</time>
      </trkpt>
      <trkpt lat="44.28553" lon="5.28633">
        <ele>456.28</ele>
        <time>2015-09-27T14:24:24Z</time>
      </trkpt>
      <trkpt lat="44.2848" lon="5.2861">
        <ele>426.96</ele>
        <time>2015-09-27T14:24:54Z</time>
      </trkpt>
      <trkpt lat="44.28438" lon="5.28552">
        <ele>429.37</ele>
        <time>2015-09-27T14:25:24Z</time>
      </trkpt>
      <trkpt lat="44.28358" lon="5.28498">
        <ele>431.77</ele>
        <time>2015-09-27T14:25:54Z</time>
      </trkpt>
      <trkpt lat="44.28246" lon="5.28435">
        <ele>433.21</ele>
        <time>2015-09-27T14:26:24Z</time>
      </trkpt>
      <trkpt lat="44.28103" lon="5.28484">
        <ele>425.04</ele>
        <time>2015-09-27T14:26:54Z</time>
      </trkpt>
      <trkpt lat="44.27999" lon="5.28663">
        <ele>423.12</ele>
        <time>2015-09-27T14:27:24Z</time>
      </trkpt>
      <trkpt lat="44.27987" lon="5.2863">
        <ele>413.5</ele>
        <time>2015-09-27T14:27:54Z</time>
      </trkpt>
      <trkpt lat="44.28058" lon="5.28284">
        <ele>397.64</ele>
        <time>2015-09-27T14:28:24Z</time>
      </trkpt>
      <trkpt lat="44.28026" lon="5.28001">
        <ele>391.87</ele>
        <time>2015-09-27T14:28:54Z</time>
      </trkpt>
      <trkpt lat="44.27911" lon="5.27891">
        <ele>388.99</ele>
        <time>2015-09-27T14:29:24Z</time>
      </trkpt>
      <trkpt lat="44.27911" lon="5.2789">
        <ele>388.99</ele>
        <time>2015-09-27T14:29:54Z</time>
      </trkpt>
      <trkpt lat="44.27804" lon="5.27806">
        <ele>387.07</ele>
        <time>2015-09-27T14:30:24Z</time>
      </trkpt>
      <trkpt lat="44.27632" lon="5.27672">
        <ele>384.18</ele>
        <time>2015-09-27T14:30:54Z</time>
      </trkpt>
      <trkpt lat="44.27587" lon="5.27563">
        <ele>379.86</ele>
        <time>2015-09-27T14:31:24Z</time>
      </trkpt>
      <trkpt lat="44.27516" lon="5.27499">
        <ele>379.38</ele>
        <time>2015-09-27T14:31:54Z</time>
      </trkpt>
      <trkpt lat="44.27541" lon="5.27421">
        <ele>380.34</ele>
        <time>2015-09-27T14:32:24Z</time>
      </trkpt>
      <trkpt lat="44.27601" lon="5.27387">
        <ele>382.26</ele>
        <time>2015-09-27T14:32:54Z</time>
      </trkpt>
      <trkpt lat="44.27639" lon="5.27449">
        <ele>382.74</ele>
        <time>2015-09-27T14:33:24Z</time>
      </trkpt>
      <trkpt lat="44.27608" lon="5.27535">
        <ele>379.86</ele>
        <time>2015-09-27T14:33:54Z</time>
      </trkpt>
      <trkpt lat="44.27636" lon="5.27594">
        <ele>381.3</ele>
        <time>2015-09-27T14:34:24Z</time>
      </trkpt>
    </trkseg>
  </trk>
</gpx>